Darstellungsparameter: Aktuell verwendete Einstellungen:
Skalierung der Graphiken ... ?
xyx+y,   Skalierungsfaktor:      Skalierung: Modus: x, Faktor: 1
Darstellungszeitraum ... ?
Vom - - bis: - -   Zeitraum: 03.03.2003 - 09.03.2003
Min/Max/Avg-Anzeige ... ?
Zeige MMA aktuell
Zeige MMA Monat
Zeige MMA alles
Zeige --A aktuell
Zeige --A Monat
Zeige --A alles
Keine MMA-Anzeige
MMA:
Average (ber die Originaldaten)
MMA-Basis: 03.03.2003 - 09.03.2003
Quicknavigation für Darstellung... ?
Tage:      1T, 2T, 3T, 5T -1T -2T -3T -5T +1T +2T +3T +5T
Wochen: 1W, 2W, 3W -1W -2W -3W +1W +2W +3W
Monate: 1M, 3M, 6M -1M -3M -6M +1M +3M +6M
Jahre:    1J, 3J, 5J, 10J -1J -3J -5J -10J +1J +3J +5J +10J
Nutze für die Darstellung ... ?
Originaldaten oder Mittelwerte auf ...
Stundenbasis Tagesbasis Wochenbasis
Monatsbasis Jahresbasis      Datenbasis: Original-Daten
Darstellen als:
Statistik (Auto) Statistik J:M      Darstellung:
Zur Graphik,    zurück zur Übersicht aller Sensoren.
 
Tabellarische Datenbersicht: ?
 
Sensor: Nr:Datum:Temp:Abs-Feuchte:Windchill:Wind:
Aussen-T/F 1 03-03-2003 00:03:11 6.4 C 5.89 g/m*3 6.4 C 0 km/h
2 03-03-2003 00:09:11 6.2 C 5.88 g/m*3 6.2 C 0 km/h
3 03-03-2003 00:15:11 6 C 5.95 g/m*3 6 C 0 km/h
4 03-03-2003 00:21:11 5.8 C 6.09 g/m*3 5.8 C 0 km/h
5 03-03-2003 00:27:11 5.8 C 6.16 g/m*3 5.8 C 0 km/h
6 03-03-2003 00:33:11 5.7 C 6.19 g/m*3 5.7 C 0 km/h
7 03-03-2003 00:39:11 5.6 C 6.22 g/m*3 5.6 C 0 km/h
8 03-03-2003 00:45:11 5.6 C 6.22 g/m*3 5.6 C 0 km/h
9 03-03-2003 00:51:11 5.6 C 6.22 g/m*3 5.6 C 0 km/h
10 03-03-2003 00:57:11 5.6 C 6.22 g/m*3 5.6 C 0 km/h
11 03-03-2003 01:03:11 5.6 C 6.22 g/m*3 5.6 C 0 km/h
12 03-03-2003 01:09:11 5.6 C 6.22 g/m*3 5.6 C 0 km/h
13 03-03-2003 01:15:11 5.6 C 6.22 g/m*3 5.6 C 0 km/h
14 03-03-2003 01:21:11 5.6 C 6.15 g/m*3 5.6 C 0 km/h
15 03-03-2003 01:27:11 5.5 C 6.11 g/m*3 5.5 C 0 km/h
16 03-03-2003 01:33:11 5.6 C 6.15 g/m*3 5.6 C 0 km/h
17 03-03-2003 01:39:11 5.6 C 6.15 g/m*3 5.6 C 0 km/h
18 03-03-2003 01:45:11 5.6 C 6.15 g/m*3 5.6 C 0 km/h
19 03-03-2003 01:51:11 5.6 C 6.15 g/m*3 5.6 C 0 km/h
20 03-03-2003 01:57:11 5.6 C 6.15 g/m*3 5.6 C 0 km/h
21 03-03-2003 02:03:11 5.6 C 6.15 g/m*3 5.6 C 0 km/h
22 03-03-2003 02:09:11 5.7 C 6.19 g/m*3 5.7 C 0 km/h
23 03-03-2003 02:15:11 5.7 C 6.12 g/m*3 5.7 C 0 km/h
24 03-03-2003 02:21:11 5.7 C 6.12 g/m*3 5.7 C 0 km/h
25 03-03-2003 02:27:11 5.7 C 6.12 g/m*3 5.7 C 0 km/h
Sensor: Nr:Datum:Temp:Abs-Feuchte:Windchill:Wind:
Aussen-T/F 26 03-03-2003 02:33:11 5.7 C 6.12 g/m*3 5.7 C 0 km/h
27 03-03-2003 02:39:11 5.7 C 6.12 g/m*3 5.7 C 0 km/h
28 03-03-2003 02:45:11 5.7 C 6.05 g/m*3 5.7 C 0 km/h
29 03-03-2003 02:51:11 5.8 C 6.09 g/m*3 5.8 C 0 km/h
30 03-03-2003 02:57:11 5.8 C 6.09 g/m*3 5.8 C 0 km/h
31 03-03-2003 03:03:11 5.9 C 6.06 g/m*3 5.9 C 0 km/h
32 03-03-2003 03:09:11 5.9 C 5.98 g/m*3 5.9 C 0 km/h
33 03-03-2003 03:15:11 5.9 C 5.98 g/m*3 5.9 C 0 km/h
34 03-03-2003 03:21:11 5.8 C 5.95 g/m*3 5.8 C 0 km/h
35 03-03-2003 03:27:11 5.8 C 6.02 g/m*3 5.8 C 0 km/h
36 03-03-2003 03:33:11 5.8 C 5.8 g/m*3 5.8 C 0 km/h
37 03-03-2003 03:39:11 5.9 C 5.84 g/m*3 5.9 C 0 km/h
38 03-03-2003 03:45:11 5.8 C 5.8 g/m*3 5.8 C 0 km/h
39 03-03-2003 03:51:11 5.8 C 5.73 g/m*3 5.8 C 0 km/h
40 03-03-2003 03:57:11 5.7 C 5.62 g/m*3 5.7 C 0 km/h
41 03-03-2003 04:03:11 5.7 C 5.62 g/m*3 5.7 C 0 km/h
42 03-03-2003 04:09:11 5.7 C 5.62 g/m*3 5.7 C 0 km/h
43 03-03-2003 04:15:11 5.8 C 5.59 g/m*3 5.8 C 0 km/h
44 03-03-2003 04:21:11 5.7 C 5.55 g/m*3 5.7 C 0 km/h
45 03-03-2003 04:27:11 5.8 C 5.59 g/m*3 5.8 C 0 km/h
46 03-03-2003 04:33:11 5.7 C 5.55 g/m*3 5.7 C 0 km/h
47 03-03-2003 04:39:11 5.7 C 5.55 g/m*3 5.7 C 0 km/h
48 03-03-2003 04:45:11 5.7 C 5.55 g/m*3 5.7 C 0 km/h
49 03-03-2003 04:51:11 5.7 C 5.62 g/m*3 5.7 C 0 km/h
50 03-03-2003 04:57:11 5.7 C 5.62 g/m*3 5.7 C 0 km/h
Sensor: Nr:Datum:Temp:Abs-Feuchte:Windchill:Wind:
Aussen-T/F 51 03-03-2003 05:03:11 5.7 C 5.62 g/m*3 5.7 C 0 km/h
52 03-03-2003 05:09:11 5.6 C 5.59 g/m*3 5.6 C 0 km/h
53 03-03-2003 05:15:11 5.6 C 5.51 g/m*3 5.6 C 0 km/h
54 03-03-2003 05:21:11 5.5 C 5.55 g/m*3 5.5 C 0 km/h
55 03-03-2003 05:27:11 5.4 C 5.44 g/m*3 5.4 C 0 km/h
56 03-03-2003 05:33:11 5.3 C 5.48 g/m*3 5.3 C 0 km/h
57 03-03-2003 05:39:11 5.2 C 5.51 g/m*3 5.2 C 0 km/h
58 03-03-2003 05:45:11 5.1 C 5.54 g/m*3 5.1 C 0 km/h
59 03-03-2003 05:51:11 5.2 C 5.58 g/m*3 5.2 C 0 km/h
60 03-03-2003 05:57:11 5.2 C 5.58 g/m*3 5.2 C 0 km/h
61 03-03-2003 06:03:11 5.1 C 5.54 g/m*3 5.1 C 0 km/h
62 03-03-2003 06:09:11 5.1 C 5.54 g/m*3 5.1 C 0 km/h
63 03-03-2003 06:15:11 5.1 C 5.54 g/m*3 5.1 C 0 km/h
64 03-03-2003 06:21:11 5.1 C 5.61 g/m*3 5.1 C 0 km/h
65 03-03-2003 06:27:11 5 C 5.57 g/m*3 5 C 0 km/h
66 03-03-2003 06:33:11 5 C 5.5 g/m*3 5 C 0 km/h
67 03-03-2003 06:39:11 5 C 5.57 g/m*3 5 C 0 km/h
68 03-03-2003 06:45:11 4.8 C 5.57 g/m*3 4.8 C 0 km/h
69 03-03-2003 06:51:11 4.7 C 5.6 g/m*3 4.7 C 0 km/h
70 03-03-2003 06:57:11 4.7 C 5.6 g/m*3 4.7 C 0 km/h
71 03-03-2003 07:03:11 4.7 C 5.6 g/m*3 4.7 C 0 km/h
72 03-03-2003 07:09:11 4.7 C 5.6 g/m*3 4.7 C 0 km/h
73 03-03-2003 07:15:11 4.7 C 5.66 g/m*3 4.7 C 0 km/h
74 03-03-2003 07:21:11 4.6 C 5.62 g/m*3 4.6 C 0 km/h
75 03-03-2003 07:27:11 4.6 C 5.62 g/m*3 4.6 C 0 km/h
Sensor: Nr:Datum:Temp:Abs-Feuchte:Windchill:Wind:
Aussen-T/F 76 03-03-2003 07:33:11 4.6 C 5.69 g/m*3 4.6 C 0 km/h
77 03-03-2003 07:39:11 4.6 C 5.62 g/m*3 4.6 C 0 km/h
78 03-03-2003 07:45:11 4.6 C 5.69 g/m*3 4.6 C 0 km/h
79 03-03-2003 07:51:11 4.5 C 5.65 g/m*3 4.5 C 0 km/h
80 03-03-2003 07:57:11 4.5 C 5.65 g/m*3 4.5 C 0 km/h
81 03-03-2003 08:03:11 4.6 C 5.69 g/m*3 4.6 C 0 km/h
82 03-03-2003 08:09:11 4.7 C 5.73 g/m*3 4.7 C 0 km/h
83 03-03-2003 08:15:11 4.7 C 5.73 g/m*3 4.7 C 0 km/h
84 03-03-2003 08:21:11 4.8 C 5.7 g/m*3 4.8 C 0 km/h
85 03-03-2003 08:27:11 4.9 C 5.74 g/m*3 4.9 C 0 km/h
86 03-03-2003 08:33:11 5 C 5.71 g/m*3 5 C 0 km/h
87 03-03-2003 08:39:11 5 C 5.71 g/m*3 5 C 0 km/h
88 03-03-2003 08:45:11 5 C 5.64 g/m*3 5 C 0 km/h
89 03-03-2003 08:51:11 5 C 5.64 g/m*3 5 C 0 km/h
90 03-03-2003 08:57:11 4.9 C 5.67 g/m*3 4.9 C 0 km/h
91 03-03-2003 09:03:11 4.9 C 5.74 g/m*3 4.9 C 0 km/h
92 03-03-2003 09:09:11 4.9 C 5.74 g/m*3 4.9 C 0 km/h
93 03-03-2003 09:15:11 4.9 C 5.74 g/m*3 4.9 C 0 km/h
94 03-03-2003 09:21:11 4.9 C 5.81 g/m*3 4.9 C 0 km/h
95 03-03-2003 09:27:11 4.9 C 5.81 g/m*3 4.9 C 0 km/h
96 03-03-2003 09:33:11 4.9 C 5.81 g/m*3 4.9 C 0 km/h
97 03-03-2003 09:39:11 4.9 C 5.81 g/m*3 4.9 C 0 km/h
98 03-03-2003 09:45:11 4.9 C 5.81 g/m*3 4.9 C 0 km/h
99 03-03-2003 09:51:11 4.9 C 5.81 g/m*3 4.9 C 0 km/h
100 03-03-2003 09:57:11 4.9 C 5.81 g/m*3 4.9 C 0 km/h
Sensor: Nr:Datum:Temp:Abs-Feuchte:Windchill:Wind:
Aussen-T/F 101 03-03-2003 10:03:11 4.9 C 5.81 g/m*3 4.9 C 0 km/h
102 03-03-2003 10:09:11 4.9 C 5.81 g/m*3 4.9 C 0 km/h
103 03-03-2003 10:15:11 4.9 C 5.81 g/m*3 4.9 C 0 km/h
104 03-03-2003 10:21:11 5 C 5.78 g/m*3 5 C 0 km/h
105 03-03-2003 10:27:11 5 C 5.78 g/m*3 5 C 0 km/h
106 03-03-2003 10:33:11 5 C 5.78 g/m*3 5 C 0 km/h
107 03-03-2003 10:39:11 5.1 C 5.81 g/m*3 5.1 C 0 km/h
108 03-03-2003 10:45:11 5.1 C 5.75 g/m*3 5.1 C 0 km/h
109 03-03-2003 10:51:11 5.2 C 5.78 g/m*3 5.2 C 0 km/h
110 03-03-2003 10:57:11 5.2 C 5.78 g/m*3 5.2 C 0 km/h
111 03-03-2003 11:03:11 5.3 C 5.82 g/m*3 5.3 C 0 km/h
112 03-03-2003 11:09:11 5.4 C 5.86 g/m*3 5.4 C 0 km/h
113 03-03-2003 11:15:11 5.4 C 5.86 g/m*3 5.4 C 0 km/h
114 03-03-2003 11:21:11 5.4 C 5.79 g/m*3 5.4 C 0 km/h
115 03-03-2003 11:27:11 5.5 C 5.76 g/m*3 5.5 C 0 km/h
116 03-03-2003 11:33:11 5.6 C 5.8 g/m*3 5.6 C 0 km/h
117 03-03-2003 11:39:11 5.6 C 5.73 g/m*3 5.6 C 0 km/h
118 03-03-2003 11:45:11 5.7 C 5.84 g/m*3 5.7 C 0 km/h
119 03-03-2003 11:51:11 5.7 C 5.76 g/m*3 5.7 C 0 km/h
120 03-03-2003 11:57:11 5.7 C 5.76 g/m*3 5.7 C 0 km/h
121 03-03-2003 12:03:25 5.7 C 5.76 g/m*3 5.7 C 0 km/h
122 03-03-2003 12:09:25 5.8 C 5.8 g/m*3 5.8 C 0 km/h
123 03-03-2003 12:15:25 5.7 C 5.69 g/m*3 5.7 C 0 km/h
124 03-03-2003 12:21:25 5.7 C 5.69 g/m*3 5.7 C 0 km/h
125 03-03-2003 12:27:25 5.7 C 5.69 g/m*3 5.7 C 0 km/h
Sensor: Nr:Datum:Temp:Abs-Feuchte:Windchill:Wind:
Aussen-T/F 126 03-03-2003 12:33:25 5.7 C 5.69 g/m*3 5.7 C 0 km/h
127 03-03-2003 12:39:25 5.7 C 5.69 g/m*3 5.7 C 0 km/h
128 03-03-2003 12:45:25 5.7 C 5.69 g/m*3 5.7 C 0 km/h
129 03-03-2003 12:51:25 5.7 C 5.69 g/m*3 5.7 C 0 km/h
130 03-03-2003 12:57:25 5.6 C 5.66 g/m*3 5.6 C 0 km/h
131 03-03-2003 13:03:25 5.6 C 5.66 g/m*3 5.6 C 0 km/h
132 03-03-2003 13:09:25 5.6 C 5.73 g/m*3 5.6 C 0 km/h
133 03-03-2003 13:15:25 5.6 C 5.73 g/m*3 5.6 C 0 km/h
134 03-03-2003 13:21:25 5.6 C 5.73 g/m*3 5.6 C 0 km/h
135 03-03-2003 13:27:25 5.6 C 5.66 g/m*3 5.6 C 0 km/h
136 03-03-2003 13:33:25 5.6 C 5.66 g/m*3 5.6 C 0 km/h
137 03-03-2003 13:39:25 5.6 C 5.73 g/m*3 5.6 C 0 km/h
138 03-03-2003 13:45:25 5.6 C 5.73 g/m*3 5.6 C 0 km/h
139 03-03-2003 13:51:25 5.6 C 5.73 g/m*3 5.6 C 0 km/h
140 03-03-2003 13:57:25 5.6 C 5.73 g/m*3 5.6 C 0 km/h
141 03-03-2003 14:03:25 5.7 C 5.76 g/m*3 5.7 C 0 km/h
142 03-03-2003 14:09:25 5.7 C 5.76 g/m*3 5.7 C 0 km/h
143 03-03-2003 14:15:25 5.7 C 5.76 g/m*3 5.7 C 0 km/h
144 03-03-2003 14:21:25 5.7 C 5.76 g/m*3 5.7 C 0 km/h
145 03-03-2003 14:27:25 5.7 C 5.69 g/m*3 5.7 C 0 km/h
146 03-03-2003 14:33:25 5.7 C 5.76 g/m*3 5.7 C 0 km/h
147 03-03-2003 14:39:25 5.8 C 5.8 g/m*3 5.8 C 0 km/h
148 03-03-2003 14:45:11 5.8 C 5.8 g/m*3 5.8 C 0 km/h
149 03-03-2003 14:51:11 5.8 C 5.8 g/m*3 5.8 C 0 km/h
150 03-03-2003 14:57:11 5.8 C 5.8 g/m*3 5.8 C 0 km/h
Sensor: Nr:Datum:Temp:Abs-Feuchte:Windchill:Wind:
Aussen-T/F 151 03-03-2003 15:03:11 5.8 C 5.8 g/m*3 5.8 C 0 km/h
152 03-03-2003 15:09:11 5.8 C 5.8 g/m*3 5.8 C 0 km/h
153 03-03-2003 15:15:11 5.8 C 5.8 g/m*3 5.8 C 0 km/h
154 03-03-2003 15:21:11 5.8 C 5.8 g/m*3 5.8 C 0 km/h
155 03-03-2003 15:27:11 5.8 C 5.8 g/m*3 5.8 C 0 km/h
156 03-03-2003 15:33:11 5.8 C 5.8 g/m*3 5.8 C 0 km/h
157 03-03-2003 15:39:11 5.8 C 5.8 g/m*3 5.8 C 0 km/h
158 03-03-2003 15:45:11 6.1 C 5.7 g/m*3 6.1 C 0 km/h
159 03-03-2003 15:51:11 6.1 C 5.7 g/m*3 6.1 C 0 km/h
160 03-03-2003 15:57:11 6.2 C 5.81 g/m*3 6.2 C 0 km/h
161 03-03-2003 16:09:10 6.3 C 5.85 g/m*3 6.3 C 0 km/h
162 03-03-2003 16:15:10 6.5 C 5.85 g/m*3 6.5 C 0 km/h
163 03-03-2003 16:21:10 6.5 C 5.85 g/m*3 6.5 C 0 km/h
164 03-03-2003 16:27:10 6.5 C 5.85 g/m*3 6.5 C 0 km/h
165 03-03-2003 16:33:10 6.5 C 5.85 g/m*3 6.5 C 0 km/h
166 03-03-2003 16:39:10 6.5 C 5.85 g/m*3 6.5 C 0 km/h
167 03-03-2003 16:45:10 6.5 C 5.85 g/m*3 6.5 C 0 km/h
168 03-03-2003 16:51:10 6.5 C 5.85 g/m*3 6.5 C 0 km/h
169 03-03-2003 16:57:10 6.3 C 5.77 g/m*3 6.3 C 0 km/h
170 03-03-2003 17:03:10 6.3 C 5.77 g/m*3 6.3 C 0 km/h
171 03-03-2003 17:09:10 6.3 C 5.77 g/m*3 6.3 C 0 km/h
172 03-03-2003 17:15:10 6 C 5.66 g/m*3 6 C 0 km/h
173 03-03-2003 17:21:10 6 C 5.66 g/m*3 6 C 0 km/h
174 03-03-2003 17:27:10 6 C 5.66 g/m*3 6 C 0 km/h
175 03-03-2003 17:33:10 6 C 5.66 g/m*3 6 C 0 km/h
Sensor: Nr:Datum:Temp:Abs-Feuchte:Windchill:Wind:
Aussen-T/F 176 03-03-2003 17:39:10 6 C 5.66 g/m*3 6 C 0 km/h
177 03-03-2003 17:51:10 6 C 5.66 g/m*3 6 C 0 km/h
178 03-03-2003 17:57:10 6 C 5.66 g/m*3 6 C 0 km/h
179 03-03-2003 18:03:10 5.8 C 5.73 g/m*3 5.8 C 0 km/h
180 03-03-2003 18:09:10 5.8 C 5.73 g/m*3 5.8 C 0 km/h
181 03-03-2003 18:15:10 5.7 C 5.69 g/m*3 5.7 C 0 km/h
182 03-03-2003 18:21:10 5.7 C 5.62 g/m*3 5.7 C 0 km/h
183 03-03-2003 18:27:10 5.7 C 5.62 g/m*3 5.7 C 0 km/h
184 03-03-2003 18:33:10 5.7 C 5.62 g/m*3 5.7 C 0 km/h
185 03-03-2003 18:39:10 5.7 C 5.62 g/m*3 5.7 C 0 km/h
186 03-03-2003 18:45:10 5.7 C 5.62 g/m*3 5.7 C 0 km/h
187 03-03-2003 18:51:10 5.5 C 5.69 g/m*3 5.5 C 0 km/h
188 03-03-2003 18:57:10 5.5 C 5.69 g/m*3 5.5 C 0 km/h
189 03-03-2003 19:03:10 5.5 C 5.69 g/m*3 5.5 C 0 km/h
190 03-03-2003 19:09:10 5.5 C 5.69 g/m*3 5.5 C 0 km/h
191 03-03-2003 19:15:10 5.4 C 5.58 g/m*3 5.4 C 0 km/h
192 03-03-2003 19:21:10 5.4 C 5.58 g/m*3 5.4 C 0 km/h
193 03-03-2003 19:27:10 5.4 C 5.65 g/m*3 5.4 C 0 km/h
194 03-03-2003 19:33:10 5.3 C 5.61 g/m*3 5.3 C 0 km/h
195 03-03-2003 19:39:10 5.3 C 5.61 g/m*3 5.3 C 0 km/h
196 03-03-2003 19:45:10 5.2 C 5.65 g/m*3 5.2 C 0 km/h
197 03-03-2003 19:51:10 5.2 C 5.65 g/m*3 5.2 C 0 km/h
198 03-03-2003 19:57:10 5.2 C 5.65 g/m*3 5.2 C 0 km/h
199 03-03-2003 20:04:10 5.2 C 5.65 g/m*3 5.2 C 0 km/h
200 03-03-2003 20:10:10 5.2 C 5.65 g/m*3 5.2 C 0 km/h
Sensor: Nr:Datum:Temp:Abs-Feuchte:Windchill:Wind:
Aussen-T/F 201 03-03-2003 20:16:10 5.2 C 5.65 g/m*3 5.2 C 0 km/h
202 03-03-2003 20:22:10 5.1 C 5.54 g/m*3 5.1 C 0 km/h
203 03-03-2003 20:28:10 5.2 C 5.65 g/m*3 5.2 C 0 km/h
204 03-03-2003 20:34:10 5.2 C 5.65 g/m*3 5.2 C 0 km/h
205 03-03-2003 20:40:10 5.2 C 5.65 g/m*3 5.2 C 0 km/h
206 03-03-2003 20:46:10 5.2 C 5.65 g/m*3 5.2 C 0 km/h
207 03-03-2003 20:52:10 5.1 C 5.61 g/m*3 5.1 C 0 km/h
208 03-03-2003 20:58:10 5.1 C 5.61 g/m*3 5.1 C 0 km/h
209 03-03-2003 21:04:10 5.1 C 5.61 g/m*3 5.1 C 0 km/h
210 03-03-2003 21:10:10 5 C 5.57 g/m*3 5 C 0 km/h
211 03-03-2003 21:16:10 5 C 5.64 g/m*3 5 C 0 km/h
212 03-03-2003 21:22:10 5 C 5.64 g/m*3 5 C 0 km/h
213 03-03-2003 21:28:10 5 C 5.64 g/m*3 5 C 0 km/h
214 03-03-2003 21:34:10 5 C 5.64 g/m*3 5 C 0 km/h
215 03-03-2003 21:40:10 5 C 5.57 g/m*3 5 C 0 km/h
216 03-03-2003 21:46:10 4.9 C 5.6 g/m*3 4.9 C 0 km/h
217 03-03-2003 21:52:10 4.9 C 5.6 g/m*3 4.9 C 0 km/h
218 03-03-2003 21:58:10 4.9 C 5.6 g/m*3 4.9 C 0 km/h
219 03-03-2003 22:04:10 4.9 C 5.6 g/m*3 4.9 C 0 km/h
220 03-03-2003 22:10:10 4.9 C 5.6 g/m*3 4.9 C 0 km/h
221 03-03-2003 22:16:10 4.9 C 5.6 g/m*3 4.9 C 0 km/h
222 03-03-2003 22:22:10 4.8 C 5.57 g/m*3 4.8 C 0 km/h
223 03-03-2003 22:28:10 4.8 C 5.57 g/m*3 4.8 C 0 km/h
224 03-03-2003 22:34:10 4.8 C 5.63 g/m*3 4.8 C 0 km/h
225 03-03-2003 22:40:10 4.8 C 5.63 g/m*3 4.8 C 0 km/h
Sensor: Nr:Datum:Temp:Abs-Feuchte:Windchill:Wind:
Aussen-T/F 226 03-03-2003 22:46:10 4.8 C 5.63 g/m*3 4.8 C 0 km/h
227 03-03-2003 22:52:10 4.7 C 5.6 g/m*3 4.7 C 0 km/h
228 03-03-2003 22:58:10 4.7 C 5.6 g/m*3 4.7 C 0 km/h
229 03-03-2003 23:04:10 4.7 C 5.6 g/m*3 4.7 C 0 km/h
230 03-03-2003 23:10:10 4.7 C 5.6 g/m*3 4.7 C 0 km/h
231 03-03-2003 23:16:10 4.7 C 5.6 g/m*3 4.7 C 0 km/h
232 03-03-2003 23:22:10 4.7 C 5.6 g/m*3 4.7 C 0 km/h
233 03-03-2003 23:28:10 4.7 C 5.6 g/m*3 4.7 C 0 km/h
234 03-03-2003 23:34:10 4.6 C 5.56 g/m*3 4.6 C 0 km/h
235 03-03-2003 23:40:10 4.6 C 5.56 g/m*3 4.6 C 0 km/h
236 03-03-2003 23:46:10 4.6 C 5.56 g/m*3 4.6 C 0 km/h
237 03-03-2003 23:52:10 4.6 C 5.56 g/m*3 4.6 C 0 km/h
238 03-03-2003 23:58:10 4.6 C 5.56 g/m*3 4.6 C 0 km/h
239 04-03-2003 00:04:10 4.6 C 5.56 g/m*3 4.6 C 0 km/h
240 04-03-2003 00:10:10 4.6 C 5.56 g/m*3 4.6 C 0 km/h
241 04-03-2003 00:16:10 4.6 C 5.56 g/m*3 4.6 C 0 km/h
242 04-03-2003 00:22:10 4.6 C 5.56 g/m*3 4.6 C 0 km/h
243 04-03-2003 00:28:10 4.6 C 5.56 g/m*3 4.6 C 0 km/h
244 04-03-2003 00:34:10 4.6 C 5.56 g/m*3 4.6 C 0 km/h
245 04-03-2003 00:40:10 4.5 C 5.52 g/m*3 4.5 C 0 km/h
246 04-03-2003 00:46:10 4.5 C 5.52 g/m*3 4.5 C 0 km/h
247 04-03-2003 00:52:10 4.5 C 5.52 g/m*3 4.5 C 0 km/h
248 04-03-2003 00:58:10 4.6 C 5.56 g/m*3 4.6 C 0 km/h
249 04-03-2003 01:04:10 4.6 C 5.56 g/m*3 4.6 C 0 km/h
250 04-03-2003 01:10:10 4.5 C 5.52 g/m*3 4.5 C 0 km/h
Sensor: Nr:Datum:Temp:Abs-Feuchte:Windchill:Wind:
Aussen-T/F 251 04-03-2003 01:16:10 4.6 C 5.56 g/m*3 4.6 C 0 km/h
252 04-03-2003 01:22:10 4.5 C 5.52 g/m*3 4.5 C 0 km/h
253 04-03-2003 01:28:10 4.5 C 5.52 g/m*3 4.5 C 0 km/h
254 04-03-2003 01:34:10 4.5 C 5.52 g/m*3 4.5 C 0 km/h
255 04-03-2003 01:40:10 4.5 C 5.52 g/m*3 4.5 C 0 km/h
256 04-03-2003 01:46:10 4.5 C 5.52 g/m*3 4.5 C 0 km/h
257 04-03-2003 01:52:10 4.5 C 5.52 g/m*3 4.5 C 0 km/h
258 04-03-2003 01:58:10 4.5 C 5.52 g/m*3 4.5 C 0 km/h
259 04-03-2003 02:04:10 4.5 C 5.52 g/m*3 4.5 C 0 km/h
260 04-03-2003 02:10:10 4.5 C 5.52 g/m*3 4.5 C 0 km/h
261 04-03-2003 02:16:10 4.5 C 5.52 g/m*3 4.5 C 0 km/h
262 04-03-2003 02:22:10 4.5 C 5.52 g/m*3 4.5 C 0 km/h
263 04-03-2003 02:28:10 4.5 C 5.52 g/m*3 4.5 C 0 km/h
264 04-03-2003 02:34:10 4.4 C 5.48 g/m*3 4.4 C 0 km/h
265 04-03-2003 02:40:10 4.4 C 5.48 g/m*3 4.4 C 0 km/h
266 04-03-2003 02:46:10 4.4 C 5.48 g/m*3 4.4 C 0 km/h
267 04-03-2003 02:52:10 4.4 C 5.48 g/m*3 4.4 C 0 km/h
268 04-03-2003 02:58:10 4.4 C 5.48 g/m*3 4.4 C 0 km/h
269 04-03-2003 03:04:10 4.3 C 5.45 g/m*3 4.3 C 0 km/h
270 04-03-2003 03:10:10 4.3 C 5.45 g/m*3 4.3 C 0 km/h
271 04-03-2003 03:16:10 4.4 C 5.48 g/m*3 4.4 C 0 km/h
272 04-03-2003 03:22:10 4.3 C 5.45 g/m*3 4.3 C 0 km/h
273 04-03-2003 03:28:10 4.2 C 5.41 g/m*3 4.2 C 0 km/h
274 04-03-2003 03:34:10 4.2 C 5.41 g/m*3 4.2 C 0 km/h
275 04-03-2003 03:40:10 4.2 C 5.48 g/m*3 4.2 C 0 km/h
Sensor: Nr:Datum:Temp:Abs-Feuchte:Windchill:Wind:
Aussen-T/F 276 04-03-2003 03:46:10 4.1 C 5.44 g/m*3 4.1 C 0 km/h
277 04-03-2003 03:52:10 4 C 5.4 g/m*3 4 C 0 km/h
278 04-03-2003 03:58:10 4 C 5.4 g/m*3 4 C 0 km/h
279 04-03-2003 04:04:10 4 C 5.4 g/m*3 4 C 0 km/h
280 04-03-2003 04:10:10 3.8 C 5.33 g/m*3 3.8 C 0 km/h
281 04-03-2003 04:16:10 3.6 C 5.26 g/m*3 3.6 C 0 km/h
282 04-03-2003 04:22:10 3.5 C 5.23 g/m*3 3.5 C 0 km/h
283 04-03-2003 04:28:10 3.2 C 5.06 g/m*3 3.2 C 0 km/h
284 04-03-2003 04:34:10 2.9 C 5.02 g/m*3 2.9 C 0 km/h
285 04-03-2003 04:40:10 2.7 C 4.95 g/m*3 2.7 C 0 km/h
286 04-03-2003 04:46:10 2.6 C 4.92 g/m*3 2.6 C 0 km/h
287 04-03-2003 04:52:10 2.5 C 4.89 g/m*3 2.5 C 0 km/h
288 04-03-2003 04:58:10 2.4 C 4.85 g/m*3 2.4 C 0 km/h
289 04-03-2003 05:04:10 2.3 C 4.82 g/m*3 2.3 C 0 km/h
290 04-03-2003 05:10:10 2.2 C 4.79 g/m*3 2.2 C 0 km/h
291 04-03-2003 05:16:10 2 C 4.72 g/m*3 2 C 0 km/h
292 04-03-2003 05:22:10 1.9 C 4.75 g/m*3 1.9 C 0 km/h
293 04-03-2003 05:28:10 1.8 C 4.71 g/m*3 1.8 C 0 km/h
294 04-03-2003 05:34:10 1.8 C 4.71 g/m*3 1.8 C 0 km/h
295 04-03-2003 05:40:10 1.8 C 4.71 g/m*3 1.8 C 0 km/h
296 04-03-2003 05:46:10 1.7 C 4.68 g/m*3 1.7 C 0 km/h
297 04-03-2003 05:52:10 1.5 C 4.62 g/m*3 1.5 C 0 km/h
298 04-03-2003 05:58:10 1.5 C 4.62 g/m*3 1.5 C 0 km/h
299 04-03-2003 06:04:10 1.5 C 4.62 g/m*3 1.5 C 0 km/h
300 04-03-2003 06:10:10 1.3 C 4.56 g/m*3 1.3 C 0 km/h
Sensor: Nr:Datum:Temp:Abs-Feuchte:Windchill:Wind:
Aussen-T/F 301 04-03-2003 06:16:10 1.4 C 4.64 g/m*3 1.4 C 0 km/h
302 04-03-2003 06:22:10 1.4 C 4.64 g/m*3 1.4 C 0 km/h
303 04-03-2003 06:28:10 1.4 C 4.69 g/m*3 1.4 C 0 km/h
304 04-03-2003 06:34:10 1.5 C 4.73 g/m*3 1.5 C 0 km/h
305 04-03-2003 06:40:10 1.5 C 4.73 g/m*3 1.5 C 0 km/h
306 04-03-2003 06:46:10 1.5 C 4.73 g/m*3 1.5 C 0 km/h
307 04-03-2003 06:52:10 1.5 C 4.73 g/m*3 1.5 C 0 km/h
308 04-03-2003 06:58:10 1.5 C 4.73 g/m*3 1.5 C 0 km/h
309 04-03-2003 07:04:10 1.6 C 4.76 g/m*3 1.6 C 0 km/h
310 04-03-2003 07:10:10 1.5 C 4.73 g/m*3 1.5 C 0 km/h
311 04-03-2003 07:16:10 1.5 C 4.73 g/m*3 1.5 C 0 km/h
312 04-03-2003 07:22:10 1.4 C 4.69 g/m*3 1.4 C 0 km/h
313 04-03-2003 07:28:10 1.4 C 4.75 g/m*3 1.4 C 0 km/h
314 04-03-2003 07:34:10 1.1 C 4.65 g/m*3 1.1 C 0 km/h
315 04-03-2003 07:40:10 1.1 C 4.65 g/m*3 1.1 C 0 km/h
316 04-03-2003 07:46:10 1 C 4.62 g/m*3 1 C 0 km/h
317 04-03-2003 07:52:10 1 C 4.67 g/m*3 1 C 0 km/h
318 04-03-2003 07:58:10 1 C 4.67 g/m*3 1 C 0 km/h
319 04-03-2003 08:04:10 0.9 C 4.69 g/m*3 0.9 C 0 km/h
320 04-03-2003 08:10:10 0.9 C 4.69 g/m*3 0.9 C 0 km/h
321 04-03-2003 08:16:10 1 C 4.72 g/m*3 1 C 0 km/h
322 04-03-2003 08:22:10 1.1 C 4.76 g/m*3 1.1 C 0 km/h
323 04-03-2003 08:28:10 1.1 C 4.76 g/m*3 1.1 C 0 km/h
324 04-03-2003 08:34:10 1.1 C 4.76 g/m*3 1.1 C 0 km/h
325 04-03-2003 08:40:10 1 C 4.67 g/m*3 1 C 0 km/h
Sensor: Nr:Datum:Temp:Abs-Feuchte:Windchill:Wind:
Aussen-T/F 326 04-03-2003 08:46:10 1.3 C 4.82 g/m*3 1.3 C 0 km/h
327 04-03-2003 08:52:10 1.5 C 4.89 g/m*3 1.5 C 0 km/h
328 04-03-2003 08:58:10 1.7 C 4.9 g/m*3 1.7 C 0 km/h
329 04-03-2003 09:04:10 1.8 C 4.88 g/m*3 1.8 C 0 km/h
330 04-03-2003 09:10:10 1.9 C 4.91 g/m*3 1.9 C 0 km/h
331 04-03-2003 09:16:10 2 C 4.89 g/m*3 2 C 0 km/h
332 04-03-2003 09:22:10 1.8 C 4.82 g/m*3 1.8 C 0 km/h
333 04-03-2003 09:28:10 1.8 C 4.82 g/m*3 1.8 C 0 km/h
334 04-03-2003 09:34:10 2.1 C 4.87 g/m*3 2.1 C 0 km/h
335 04-03-2003 09:40:10 2.4 C 4.97 g/m*3 2.4 C 0 km/h
336 04-03-2003 09:46:10 2.7 C 5.07 g/m*3 2.7 C 0 km/h
337 04-03-2003 09:52:10 2.8 C 5.04 g/m*3 2.8 C 0 km/h
338 04-03-2003 09:58:10 2.5 C 4.83 g/m*3 2.5 C 0 km/h
339 04-03-2003 10:04:10 2.6 C 4.86 g/m*3 2.6 C 0 km/h
340 04-03-2003 10:10:10 3 C 4.99 g/m*3 3 C 0 km/h
341 04-03-2003 10:16:10 3.2 C 5.06 g/m*3 3.2 C 0 km/h
342 04-03-2003 10:22:10 3.5 C 5.1 g/m*3 3.5 C 0 km/h
343 04-03-2003 10:28:10 3.7 C 5.11 g/m*3 3.7 C 0 km/h
344 04-03-2003 10:34:10 3.8 C 5.08 g/m*3 3.8 C 0 km/h
345 04-03-2003 10:40:10 3.9 C 5.12 g/m*3 3.9 C 0 km/h
346 04-03-2003 10:46:10 4.1 C 5.12 g/m*3 4.1 C 0 km/h
347 04-03-2003 10:52:10 4.2 C 5.15 g/m*3 4.2 C 0 km/h
348 04-03-2003 10:58:10 4.3 C 5.25 g/m*3 4.3 C 0 km/h
349 04-03-2003 11:04:10 4.3 C 5.25 g/m*3 4.3 C 0 km/h
350 04-03-2003 11:10:10 4.2 C 5.28 g/m*3 4.2 C 0 km/h
Sensor: Nr:Datum:Temp:Abs-Feuchte:Windchill:Wind:
Aussen-T/F 351 04-03-2003 11:16:10 4.2 C 5.28 g/m*3 4.2 C 0 km/h
352 04-03-2003 11:22:10 4.5 C 5.39 g/m*3 4.5 C 0 km/h
353 04-03-2003 11:28:10 4.9 C 5.6 g/m*3 4.9 C 0 km/h
354 04-03-2003 11:34:10 5.1 C 5.61 g/m*3 5.1 C 0 km/h
355 04-03-2003 11:40:10 5.8 C 5.8 g/m*3 5.8 C 0 km/h
356 04-03-2003 11:46:10 6.6 C 5.74 g/m*3 6.6 C 0 km/h
357 04-03-2003 11:52:10 7 C 5.66 g/m*3 7 C 0 km/h
358 04-03-2003 11:58:10 7 C 5.66 g/m*3 7 C 0 km/h
359 04-03-2003 12:04:11 8.1 C 5.66 g/m*3 8.1 C 0 km/h
360 04-03-2003 12:10:11 8.3 C 5.39 g/m*3 8.3 C 0 km/h
361 04-03-2003 12:16:11 8.5 C 5.46 g/m*3 8.5 C 0 km/h
362 04-03-2003 12:22:11 9.1 C 5.32 g/m*3 9.1 C 0 km/h
363 04-03-2003 12:28:11 9.1 C 5.32 g/m*3 9.1 C 0 km/h
364 04-03-2003 12:34:11 9.7 C 5.25 g/m*3 9.7 C 0 km/h
365 04-03-2003 12:40:11 10.1 C 5.11 g/m*3 10.1 C 0 km/h
366 04-03-2003 12:46:11 10.1 C 5.11 g/m*3 10.1 C 0 km/h
367 04-03-2003 12:52:11 10.1 C 5.11 g/m*3 10.1 C 0 km/h
368 04-03-2003 12:58:11 10.4 C 5.01 g/m*3 10.4 C 0 km/h
369 04-03-2003 13:04:11 10.7 C 5.3 g/m*3 10.7 C 0 km/h
370 04-03-2003 13:10:11 10.5 C 4.85 g/m*3 10.5 C 0 km/h
371 04-03-2003 13:16:11 11 C 5.1 g/m*3 11 C 0 km/h
372 04-03-2003 13:22:11 11.1 C 5.04 g/m*3 11.1 C 0 km/h
373 04-03-2003 13:28:11 11.5 C 4.96 g/m*3 11.5 C 0 km/h
374 04-03-2003 13:34:11 11.7 C 5.02 g/m*3 11.7 C 0 km/h
375 04-03-2003 13:40:11 11.6 C 4.78 g/m*3 11.6 C 0 km/h
Sensor: Nr:Datum:Temp:Abs-Feuchte:Windchill:Wind:
Aussen-T/F 376 04-03-2003 13:46:11 11.4 C 4.72 g/m*3 11.4 C 0 km/h
377 04-03-2003 13:52:11 11.4 C 4.72 g/m*3 11.4 C 0 km/h
378 04-03-2003 13:58:11 11.4 C 4.82 g/m*3 11.4 C 0 km/h
379 04-03-2003 14:04:11 11.5 C 4.85 g/m*3 11.5 C 0 km/h
380 04-03-2003 14:10:11 11.8 C 4.84 g/m*3 11.8 C 0 km/h
381 04-03-2003 14:16:11 12.2 C 4.96 g/m*3 12.2 C 0 km/h
382 04-03-2003 14:22:11 12.1 C 4.61 g/m*3 12.1 C 0 km/h
383 04-03-2003 14:28:11 12.2 C 4.75 g/m*3 12.2 C 0 km/h
384 04-03-2003 14:34:11 12.6 C 4.76 g/m*3 12.6 C 0 km/h
385 04-03-2003 14:40:11 12.7 C 4.68 g/m*3 12.7 C 0 km/h
386 04-03-2003 14:46:11 13 C 4.76 g/m*3 13 C 0 km/h
387 04-03-2003 14:52:11 12.8 C 4.59 g/m*3 12.8 C 0 km/h
388 04-03-2003 14:58:11 12.6 C 4.65 g/m*3 12.6 C 0 km/h
389 04-03-2003 15:04:11 12.5 C 4.73 g/m*3 12.5 C 0 km/h
390 04-03-2003 15:10:11 12.7 C 4.68 g/m*3 12.7 C 0 km/h
391 04-03-2003 15:16:11 12.9 C 4.73 g/m*3 12.9 C 0 km/h
392 04-03-2003 15:22:11 13.3 C 4.85 g/m*3 13.3 C 0 km/h
393 04-03-2003 15:28:11 13.2 C 4.82 g/m*3 13.2 C 0 km/h
394 04-03-2003 15:34:11 13.6 C 4.94 g/m*3 13.6 C 0 km/h
395 04-03-2003 15:40:11 13.4 C 4.77 g/m*3 13.4 C 0 km/h
396 04-03-2003 15:46:11 13.4 C 4.77 g/m*3 13.4 C 0 km/h
397 04-03-2003 15:52:11 13.3 C 4.74 g/m*3 13.3 C 0 km/h
398 04-03-2003 15:58:11 13.2 C 4.71 g/m*3 13.2 C 0 km/h
399 04-03-2003 16:04:11 13.2 C 4.82 g/m*3 13.2 C 0 km/h
400 04-03-2003 16:10:11 13.3 C 4.74 g/m*3 13.3 C 0 km/h
Sensor: Nr:Datum:Temp:Abs-Feuchte:Windchill:Wind:
Aussen-T/F 401 04-03-2003 16:16:11 13.2 C 4.82 g/m*3 13.2 C 0 km/h
402 04-03-2003 16:22:11 13.2 C 4.82 g/m*3 13.2 C 0 km/h
403 04-03-2003 16:28:11 12.6 C 4.76 g/m*3 12.6 C 0 km/h
404 04-03-2003 16:34:11 12.2 C 4.86 g/m*3 12.2 C 0 km/h
405 04-03-2003 16:40:11 12 C 4.9 g/m*3 12 C 0 km/h
406 04-03-2003 16:46:11 11.8 C 5.05 g/m*3 11.8 C 0 km/h
407 04-03-2003 16:52:11 11.7 C 5.02 g/m*3 11.7 C 0 km/h
408 04-03-2003 16:58:11 11.5 C 5.06 g/m*3 11.5 C 0 km/h
409 04-03-2003 17:04:11 11.3 C 5.1 g/m*3 11.3 C 0 km/h
410 04-03-2003 17:10:11 11.2 C 5.07 g/m*3 11.2 C 0 km/h
411 04-03-2003 17:16:11 11 C 5.1 g/m*3 11 C 0 km/h
412 04-03-2003 17:22:11 10.8 C 5.14 g/m*3 10.8 C 0 km/h
413 04-03-2003 17:28:11 10.7 C 5.11 g/m*3 10.7 C 0 km/h
414 04-03-2003 17:34:11 10.4 C 5.11 g/m*3 10.4 C 0 km/h
415 04-03-2003 17:40:11 10.3 C 5.17 g/m*3 10.3 C 0 km/h
416 04-03-2003 17:46:11 10.1 C 5.2 g/m*3 10.1 C 0 km/h
417 04-03-2003 17:52:11 9.9 C 5.14 g/m*3 9.9 C 0 km/h
418 04-03-2003 17:58:11 9.7 C 5.25 g/m*3 9.7 C 0 km/h
419 04-03-2003 18:04:11 9.6 C 5.31 g/m*3 9.6 C 0 km/h
420 04-03-2003 18:10:11 9.3 C 5.21 g/m*3 9.3 C 0 km/h
421 04-03-2003 18:16:11 9.2 C 5.18 g/m*3 9.2 C 0 km/h
422 04-03-2003 18:22:11 8.8 C 5.48 g/m*3 8.8 C 0 km/h
423 04-03-2003 18:28:11 8.7 C 5.45 g/m*3 8.7 C 0 km/h
424 04-03-2003 18:34:11 8.4 C 5.43 g/m*3 8.4 C 0 km/h
425 04-03-2003 18:40:11 8.4 C 5.34 g/m*3 8.4 C 0 km/h
Sensor: Nr:Datum:Temp:Abs-Feuchte:Windchill:Wind:
Aussen-T/F 426 04-03-2003 18:46:11 8.4 C 5.26 g/m*3 8.4 C 0 km/h
427 04-03-2003 18:52:11 8.2 C 5.36 g/m*3 8.2 C 0 km/h
428 04-03-2003 18:58:11 8.2 C 5.28 g/m*3 8.2 C 0 km/h
429 04-03-2003 19:04:11 8.2 C 5.28 g/m*3 8.2 C 0 km/h
430 04-03-2003 19:10:11 8.2 C 5.44 g/m*3 8.2 C 0 km/h
431 04-03-2003 19:16:11 8.2 C 5.36 g/m*3 8.2 C 0 km/h
432 04-03-2003 19:28:11 8.4 C 5.26 g/m*3 8.4 C 0 km/h
433 04-03-2003 19:34:11 8.5 C 5.29 g/m*3 8.5 C 0 km/h
434 04-03-2003 19:40:11 8.5 C 5.29 g/m*3 8.5 C 0 km/h
435 04-03-2003 19:46:11 8.6 C 5.16 g/m*3 8.6 C 0 km/h
436 04-03-2003 19:52:11 8.7 C 5.28 g/m*3 8.7 C 0 km/h
437 04-03-2003 19:58:11 8.6 C 5.33 g/m*3 8.6 C 0 km/h
438 05-03-2003 16:05:13 13.4 C 6.28 g/m*3 13.4 C 0 km/h
439 05-03-2003 16:11:13 13.4 C 6.28 g/m*3 13.4 C 0 km/h
440 05-03-2003 16:17:13 13.4 C 6.39 g/m*3 13.4 C 0 km/h
441 05-03-2003 16:23:13 13.4 C 6.28 g/m*3 13.4 C 0 km/h
442 05-03-2003 16:29:13 13.4 C 6.28 g/m*3 13.4 C 0 km/h
443 05-03-2003 16:35:13 13.4 C 6.28 g/m*3 13.4 C 0 km/h
444 05-03-2003 16:41:13 13.4 C 6.28 g/m*3 13.4 C 0 km/h
445 05-03-2003 16:47:13 13.5 C 6.55 g/m*3 13.5 C 0 km/h
446 05-03-2003 16:53:13 13.5 C 6.67 g/m*3 13.5 C 0 km/h
447 05-03-2003 16:59:13 13.5 C 6.67 g/m*3 13.5 C 0 km/h
448 05-03-2003 17:05:13 13.5 C 6.67 g/m*3 13.5 C 0 km/h
449 05-03-2003 17:11:13 13.5 C 6.67 g/m*3 13.5 C 0 km/h
450 05-03-2003 17:17:13 13.1 C 6.62 g/m*3 13.1 C 0 km/h
Sensor: Nr:Datum:Temp:Abs-Feuchte:Windchill:Wind:
Aussen-T/F 451 05-03-2003 17:23:13 13.1 C 6.62 g/m*3 13.1 C 0 km/h
452 05-03-2003 17:29:13 12.9 C 6.76 g/m*3 12.9 C 0 km/h
453 05-03-2003 17:35:13 12.7 C 6.79 g/m*3 12.7 C 0 km/h
454 05-03-2003 17:41:13 12.5 C 6.82 g/m*3 12.5 C 0 km/h
455 05-03-2003 17:47:13 12.4 C 6.77 g/m*3 12.4 C 0 km/h
456 05-03-2003 17:53:13 12.2 C 6.8 g/m*3 12.2 C 0 km/h
457 05-03-2003 17:59:13 12.1 C 6.76 g/m*3 12.1 C 0 km/h
458 05-03-2003 18:05:13 12.1 C 6.86 g/m*3 12.1 C 0 km/h
459 05-03-2003 18:11:13 12 C 6.82 g/m*3 12 C 0 km/h
460 05-03-2003 18:17:13 11.8 C 6.84 g/m*3 11.8 C 0 km/h
461 05-03-2003 18:23:13 11.7 C 6.9 g/m*3 11.7 C 0 km/h
462 05-03-2003 18:29:13 11.6 C 6.86 g/m*3 11.6 C 0 km/h
463 05-03-2003 18:35:13 11.5 C 6.92 g/m*3 11.5 C 0 km/h
464 05-03-2003 18:41:13 11.4 C 6.88 g/m*3 11.4 C 0 km/h
465 05-03-2003 18:47:13 11.4 C 6.88 g/m*3 11.4 C 0 km/h
466 05-03-2003 18:53:13 11.3 C 6.94 g/m*3 11.3 C 0 km/h
467 05-03-2003 18:59:13 11.3 C 6.94 g/m*3 11.3 C 0 km/h
468 05-03-2003 19:05:13 11.2 C 6.89 g/m*3 11.2 C 0 km/h
469 05-03-2003 19:11:13 11.3 C 6.94 g/m*3 11.3 C 0 km/h
470 05-03-2003 19:17:13 11.2 C 6.89 g/m*3 11.2 C 0 km/h
471 05-03-2003 19:23:13 11.2 C 6.89 g/m*3 11.2 C 0 km/h
472 05-03-2003 19:29:13 11.3 C 6.94 g/m*3 11.3 C 0 km/h
473 05-03-2003 19:35:13 11.3 C 7.04 g/m*3 11.3 C 0 km/h
474 05-03-2003 19:41:13 11.1 C 6.95 g/m*3 11.1 C 0 km/h
475 05-03-2003 19:47:13 11.1 C 6.95 g/m*3 11.1 C 0 km/h
Sensor: Nr:Datum:Temp:Abs-Feuchte:Windchill:Wind:
Aussen-T/F 476 05-03-2003 19:53:13 11.1 C 6.95 g/m*3 11.1 C 0 km/h
477 05-03-2003 19:59:13 11.1 C 6.95 g/m*3 11.1 C 0 km/h
478 05-03-2003 20:06:12 11.1 C 6.95 g/m*3 11.1 C 0 km/h
479 05-03-2003 20:12:12 11.1 C 6.95 g/m*3 11.1 C 0 km/h
480 05-03-2003 20:18:12 11.1 C 6.95 g/m*3 11.1 C 0 km/h
481 05-03-2003 20:24:12 11 C 6.91 g/m*3 11 C 0 km/h
482 05-03-2003 20:30:12 10.9 C 6.96 g/m*3 10.9 C 0 km/h
483 05-03-2003 20:36:12 10.9 C 6.96 g/m*3 10.9 C 0 km/h
484 05-03-2003 20:42:12 10.9 C 6.96 g/m*3 10.9 C 0 km/h
485 05-03-2003 20:48:12 10.9 C 6.96 g/m*3 10.9 C 0 km/h
486 05-03-2003 20:54:12 10.9 C 6.96 g/m*3 10.9 C 0 km/h
487 05-03-2003 21:06:12 11 C 6.91 g/m*3 11 C 0 km/h
488 05-03-2003 21:12:12 10.9 C 6.96 g/m*3 10.9 C 0 km/h
489 05-03-2003 21:18:12 10.9 C 6.96 g/m*3 10.9 C 0 km/h
490 05-03-2003 21:24:12 10.8 C 6.92 g/m*3 10.8 C 0 km/h
491 05-03-2003 21:30:12 10.9 C 6.96 g/m*3 10.9 C 0 km/h
492 05-03-2003 21:36:12 11 C 6.81 g/m*3 11 C 0 km/h
493 05-03-2003 21:42:12 11 C 6.81 g/m*3 11 C 0 km/h
494 05-03-2003 21:48:12 11 C 6.81 g/m*3 11 C 0 km/h
495 05-03-2003 21:54:12 10.9 C 6.76 g/m*3 10.9 C 0 km/h
496 05-03-2003 22:00:12 10.8 C 6.72 g/m*3 10.8 C 0 km/h
497 05-03-2003 22:06:12 10.5 C 6.69 g/m*3 10.5 C 0 km/h
498 05-03-2003 22:12:12 10.3 C 6.61 g/m*3 10.3 C 0 km/h
499 05-03-2003 22:18:12 10 C 6.58 g/m*3 10 C 0 km/h
500 05-03-2003 22:24:12 10.2 C 6.66 g/m*3 10.2 C 0 km/h
Sensor: Nr:Datum:Temp:Abs-Feuchte:Windchill:Wind:
Aussen-T/F 501 05-03-2003 22:30:12 10.2 C 6.66 g/m*3 10.2 C 0 km/h
502 05-03-2003 22:36:12 10.2 C 6.66 g/m*3 10.2 C 0 km/h
503 05-03-2003 22:42:12 10.2 C 6.57 g/m*3 10.2 C 0 km/h
504 05-03-2003 22:48:12 10.2 C 6.57 g/m*3 10.2 C 0 km/h
505 05-03-2003 22:54:12 10.1 C 6.52 g/m*3 10.1 C 0 km/h
506 05-03-2003 23:00:12 10.2 C 6.47 g/m*3 10.2 C 0 km/h
507 05-03-2003 23:06:12 10.2 C 6.57 g/m*3 10.2 C 0 km/h
508 05-03-2003 23:12:12 10.2 C 6.57 g/m*3 10.2 C 0 km/h
509 05-03-2003 23:18:12 10.1 C 6.52 g/m*3 10.1 C 0 km/h
510 05-03-2003 23:24:12 10.1 C 6.52 g/m*3 10.1 C 0 km/h
511 05-03-2003 23:30:12 9.6 C 6.41 g/m*3 9.6 C 0 km/h
512 05-03-2003 23:36:12 9.4 C 6.42 g/m*3 9.4 C 0 km/h
513 05-03-2003 23:42:12 9.2 C 6.34 g/m*3 9.2 C 0 km/h
514 05-03-2003 23:48:12 9.2 C 6.25 g/m*3 9.2 C 0 km/h
515 05-03-2003 23:54:12 9 C 6.26 g/m*3 9 C 0 km/h
516 06-03-2003 00:00:12 9.1 C 6.3 g/m*3 9.1 C 0 km/h
517 06-03-2003 00:06:12 9.3 C 6.29 g/m*3 9.3 C 0 km/h
518 06-03-2003 00:12:12 9.3 C 6.29 g/m*3 9.3 C 0 km/h
519 06-03-2003 00:18:12 9.5 C 6.28 g/m*3 9.5 C 0 km/h
520 06-03-2003 00:24:12 9.4 C 6.24 g/m*3 9.4 C 0 km/h
521 06-03-2003 00:30:12 9.4 C 6.24 g/m*3 9.4 C 0 km/h
522 06-03-2003 00:36:12 9.4 C 6.24 g/m*3 9.4 C 0 km/h
523 06-03-2003 00:42:12 9.5 C 6.28 g/m*3 9.5 C 0 km/h
524 06-03-2003 00:48:12 9.6 C 6.32 g/m*3 9.6 C 0 km/h
525 06-03-2003 00:54:12 9.7 C 6.27 g/m*3 9.7 C 0 km/h
Sensor: Nr:Datum:Temp:Abs-Feuchte:Windchill:Wind:
Aussen-T/F 526 06-03-2003 01:00:12 9.6 C 6.23 g/m*3 9.6 C 0 km/h
527 06-03-2003 01:06:12 9.7 C 6.18 g/m*3 9.7 C 0 km/h
528 06-03-2003 01:12:12 9.8 C 6.22 g/m*3 9.8 C 0 km/h
529 06-03-2003 01:18:12 9.8 C 6.12 g/m*3 9.8 C 0 km/h
530 06-03-2003 01:24:12 9.6 C 6.14 g/m*3 9.6 C 0 km/h
531 06-03-2003 01:30:12 9.9 C 6.16 g/m*3 9.9 C 0 km/h
532 06-03-2003 01:36:12 10 C 5.92 g/m*3 10 C 0 km/h
533 06-03-2003 01:42:12 10.1 C 5.96 g/m*3 10.1 C 0 km/h
534 06-03-2003 01:48:12 10.1 C 5.96 g/m*3 10.1 C 0 km/h
535 06-03-2003 01:54:12 10 C 5.92 g/m*3 10 C 0 km/h
536 06-03-2003 02:00:12 10 C 5.92 g/m*3 10 C 0 km/h
537 06-03-2003 02:06:12 10.1 C 5.86 g/m*3 10.1 C 0 km/h
538 06-03-2003 02:12:12 10.1 C 5.86 g/m*3 10.1 C 0 km/h
539 06-03-2003 02:18:12 10.1 C 5.86 g/m*3 10.1 C 0 km/h
540 06-03-2003 02:24:12 10 C 5.83 g/m*3 10 C 0 km/h
541 06-03-2003 02:30:12 10.1 C 5.86 g/m*3 10.1 C 0 km/h
542 06-03-2003 02:36:12 10.1 C 5.77 g/m*3 10.1 C 0 km/h
543 06-03-2003 02:42:12 10 C 5.73 g/m*3 10 C 0 km/h
544 06-03-2003 02:48:12 10.2 C 5.71 g/m*3 10.2 C 0 km/h
545 06-03-2003 02:54:12 10.1 C 5.67 g/m*3 10.1 C 0 km/h
546 06-03-2003 03:00:12 10.2 C 5.71 g/m*3 10.2 C 0 km/h
547 06-03-2003 03:06:12 10.2 C 5.61 g/m*3 10.2 C 0 km/h
548 06-03-2003 03:12:12 10.2 C 5.52 g/m*3 10.2 C 0 km/h
549 06-03-2003 03:18:12 10.2 C 5.52 g/m*3 10.2 C 0 km/h
550 06-03-2003 03:24:12 10.1 C 5.48 g/m*3 10.1 C 0 km/h
Sensor: Nr:Datum:Temp:Abs-Feuchte:Windchill:Wind:
Aussen-T/F 551 06-03-2003 03:30:12 10 C 5.45 g/m*3 10 C 0 km/h
552 06-03-2003 03:36:12 9.9 C 5.51 g/m*3 9.9 C 0 km/h
553 06-03-2003 03:42:12 9.9 C 5.51 g/m*3 9.9 C 0 km/h
554 06-03-2003 03:48:12 9.8 C 5.47 g/m*3 9.8 C 0 km/h
555 06-03-2003 03:54:12 9.7 C 5.53 g/m*3 9.7 C 0 km/h
556 06-03-2003 04:00:12 9.6 C 5.5 g/m*3 9.6 C 0 km/h
557 06-03-2003 04:06:12 9.6 C 5.5 g/m*3 9.6 C 0 km/h
558 06-03-2003 04:12:12 9.6 C 5.5 g/m*3 9.6 C 0 km/h
559 06-03-2003 04:18:12 9.6 C 5.5 g/m*3 9.6 C 0 km/h
560 06-03-2003 04:24:12 9.6 C 5.4 g/m*3 9.6 C 0 km/h
561 06-03-2003 04:30:12 9.5 C 5.46 g/m*3 9.5 C 0 km/h
562 06-03-2003 04:36:12 9.4 C 5.43 g/m*3 9.4 C 0 km/h
563 06-03-2003 04:42:12 9.5 C 5.46 g/m*3 9.5 C 0 km/h
564 06-03-2003 04:48:12 9.5 C 5.37 g/m*3 9.5 C 0 km/h
565 06-03-2003 04:54:12 9.4 C 5.43 g/m*3 9.4 C 0 km/h
566 06-03-2003 05:00:12 9.5 C 5.46 g/m*3 9.5 C 0 km/h
567 06-03-2003 05:06:12 9.4 C 5.43 g/m*3 9.4 C 0 km/h
568 06-03-2003 05:12:12 9.4 C 5.43 g/m*3 9.4 C 0 km/h
569 06-03-2003 05:18:12 9.4 C 5.43 g/m*3 9.4 C 0 km/h
570 06-03-2003 05:24:12 9.3 C 5.39 g/m*3 9.3 C 0 km/h
571 06-03-2003 05:30:12 9.3 C 5.39 g/m*3 9.3 C 0 km/h
572 06-03-2003 05:36:12 9.2 C 5.36 g/m*3 9.2 C 0 km/h
573 06-03-2003 05:42:12 9.1 C 5.32 g/m*3 9.1 C 0 km/h
574 06-03-2003 05:48:12 9 C 5.29 g/m*3 9 C 0 km/h
575 06-03-2003 05:54:12 8.7 C 5.36 g/m*3 8.7 C 0 km/h
Sensor: Nr:Datum:Temp:Abs-Feuchte:Windchill:Wind:
Aussen-T/F 576 06-03-2003 06:00:12 8.6 C 5.33 g/m*3 8.6 C 0 km/h
577 06-03-2003 06:06:12 8.5 C 5.29 g/m*3 8.5 C 0 km/h
578 06-03-2003 06:12:12 8.4 C 5.34 g/m*3 8.4 C 0 km/h
579 06-03-2003 06:18:12 8.5 C 5.38 g/m*3 8.5 C 0 km/h
580 06-03-2003 06:24:12 8.6 C 5.33 g/m*3 8.6 C 0 km/h
581 06-03-2003 06:30:12 8.7 C 5.36 g/m*3 8.7 C 0 km/h
582 06-03-2003 06:36:12 8.6 C 5.33 g/m*3 8.6 C 0 km/h
583 06-03-2003 06:42:12 8.6 C 5.33 g/m*3 8.6 C 0 km/h
584 06-03-2003 06:48:12 8.6 C 5.33 g/m*3 8.6 C 0 km/h
585 06-03-2003 06:54:12 8.6 C 5.33 g/m*3 8.6 C 0 km/h
586 06-03-2003 07:00:12 8.7 C 5.36 g/m*3 8.7 C 0 km/h
587 06-03-2003 07:06:12 8.7 C 5.36 g/m*3 8.7 C 0 km/h
588 06-03-2003 07:12:12 8.6 C 5.33 g/m*3 8.6 C 0 km/h
589 06-03-2003 07:18:12 8.6 C 5.33 g/m*3 8.6 C 0 km/h
590 06-03-2003 07:24:12 8.6 C 5.33 g/m*3 8.6 C 0 km/h
591 06-03-2003 07:30:12 8.6 C 5.33 g/m*3 8.6 C 0 km/h
592 06-03-2003 07:36:12 8.6 C 5.33 g/m*3 8.6 C 0 km/h
593 06-03-2003 07:42:12 8.6 C 5.33 g/m*3 8.6 C 0 km/h
594 06-03-2003 07:48:12 8.7 C 5.36 g/m*3 8.7 C 0 km/h
595 06-03-2003 07:54:12 8.7 C 5.36 g/m*3 8.7 C 0 km/h
596 06-03-2003 08:00:12 8.8 C 5.31 g/m*3 8.8 C 0 km/h
597 06-03-2003 08:06:12 8.7 C 5.28 g/m*3 8.7 C 0 km/h
598 06-03-2003 08:12:12 9 C 5.38 g/m*3 9 C 0 km/h
599 06-03-2003 08:18:12 9 C 5.38 g/m*3 9 C 0 km/h
600 06-03-2003 08:24:12 8.9 C 5.34 g/m*3 8.9 C 0 km/h
Sensor: Nr:Datum:Temp:Abs-Feuchte:Windchill:Wind:
Aussen-T/F 601 06-03-2003 08:30:12 8.9 C 5.34 g/m*3 8.9 C 0 km/h
602 06-03-2003 08:36:12 8.9 C 5.34 g/m*3 8.9 C 0 km/h
603 06-03-2003 08:42:12 9 C 5.29 g/m*3 9 C 0 km/h
604 06-03-2003 08:48:12 9.1 C 5.32 g/m*3 9.1 C 0 km/h
605 06-03-2003 08:54:12 9.1 C 5.23 g/m*3 9.1 C 0 km/h
606 06-03-2003 09:00:12 9.2 C 5.36 g/m*3 9.2 C 0 km/h
607 06-03-2003 09:06:12 9.2 C 5.27 g/m*3 9.2 C 0 km/h
608 06-03-2003 09:12:12 9.2 C 5.36 g/m*3 9.2 C 0 km/h
609 06-03-2003 09:18:12 9.2 C 5.36 g/m*3 9.2 C 0 km/h
610 06-03-2003 09:24:12 9.4 C 5.34 g/m*3 9.4 C 0 km/h
611 06-03-2003 09:30:12 9.5 C 5.37 g/m*3 9.5 C 0 km/h
612 06-03-2003 09:36:12 9.8 C 5.47 g/m*3 9.8 C 0 km/h
613 06-03-2003 09:42:12 10 C 5.45 g/m*3 10 C 0 km/h
614 06-03-2003 09:48:12 10.1 C 5.39 g/m*3 10.1 C 0 km/h
615 06-03-2003 09:54:12 10.2 C 5.42 g/m*3 10.2 C 0 km/h
616 06-03-2003 10:00:12 10.3 C 5.46 g/m*3 10.3 C 0 km/h
617 06-03-2003 10:06:12 10.3 C 5.36 g/m*3 10.3 C 0 km/h
618 06-03-2003 10:12:12 10.2 C 5.33 g/m*3 10.2 C 0 km/h
619 06-03-2003 10:18:12 10.4 C 5.49 g/m*3 10.4 C 0 km/h
620 06-03-2003 10:24:12 10.5 C 5.53 g/m*3 10.5 C 0 km/h
621 06-03-2003 10:30:12 10.5 C 5.63 g/m*3 10.5 C 0 km/h
622 06-03-2003 10:36:12 10.6 C 5.66 g/m*3 10.6 C 0 km/h
623 06-03-2003 10:42:12 10.5 C 5.72 g/m*3 10.5 C 0 km/h
624 06-03-2003 10:48:12 10.3 C 5.65 g/m*3 10.3 C 0 km/h
625 06-03-2003 10:54:12 9.8 C 5.75 g/m*3 9.8 C 0 km/h
Sensor: Nr:Datum:Temp:Abs-Feuchte:Windchill:Wind:
Aussen-T/F 626 06-03-2003 11:00:12 9.3 C 5.84 g/m*3 9.3 C 0 km/h
627 06-03-2003 11:06:12 9.1 C 5.86 g/m*3 9.1 C 0 km/h
628 06-03-2003 11:12:12 8.7 C 5.97 g/m*3 8.7 C 0 km/h
629 06-03-2003 11:18:12 8.4 C 6.36 g/m*3 8.4 C 0 km/h
630 06-03-2003 11:24:12 8.2 C 6.45 g/m*3 8.2 C 0 km/h
631 06-03-2003 11:30:12 8.1 C 6.66 g/m*3 8.1 C 0 km/h
632 06-03-2003 11:36:12 8.1 C 6.74 g/m*3 8.1 C 0 km/h
633 06-03-2003 11:42:12 8.3 C 6.91 g/m*3 8.3 C 0 km/h
634 06-03-2003 11:48:12 8.4 C 7.04 g/m*3 8.4 C 0 km/h
635 06-03-2003 11:54:12 8.2 C 6.95 g/m*3 8.2 C 0 km/h
636 06-03-2003 12:00:12 8.2 C 7.03 g/m*3 8.2 C 0 km/h
637 06-03-2003 12:06:12 8.3 C 7.16 g/m*3 8.3 C 0 km/h
638 06-03-2003 12:12:12 8.2 C 7.03 g/m*3 8.2 C 0 km/h
639 06-03-2003 12:18:12 8.2 C 7.03 g/m*3 8.2 C 0 km/h
640 06-03-2003 12:24:12 8.2 C 7.03 g/m*3 8.2 C 0 km/h
641 06-03-2003 12:30:12 8.2 C 7.03 g/m*3 8.2 C 0 km/h
642 06-03-2003 12:36:12 8.2 C 7.03 g/m*3 8.2 C 0 km/h
643 06-03-2003 12:42:12 8 C 7.03 g/m*3 8 C 0 km/h
644 06-03-2003 12:48:12 8.1 C 7.07 g/m*3 8.1 C 0 km/h
645 06-03-2003 12:54:12 8.1 C 7.07 g/m*3 8.1 C 0 km/h
646 06-03-2003 13:00:12 8 C 7.11 g/m*3 8 C 0 km/h
647 06-03-2003 13:06:12 8 C 7.11 g/m*3 8 C 0 km/h
648 06-03-2003 13:12:12 8.1 C 7.24 g/m*3 8.1 C 0 km/h
649 06-03-2003 13:18:12 8.1 C 7.24 g/m*3 8.1 C 0 km/h
650 06-03-2003 13:24:12 7.8 C 7.02 g/m*3 7.8 C 0 km/h
Sensor: Nr:Datum:Temp:Abs-Feuchte:Windchill:Wind:
Aussen-T/F 651 06-03-2003 13:30:12 7.7 C 6.89 g/m*3 7.7 C 0 km/h
652 06-03-2003 13:36:12 7.6 C 6.85 g/m*3 7.6 C 0 km/h
653 06-03-2003 13:42:12 7.6 C 6.93 g/m*3 7.6 C 0 km/h
654 06-03-2003 13:48:12 7.6 C 6.93 g/m*3 7.6 C 0 km/h
655 06-03-2003 13:54:12 7.4 C 6.6 g/m*3 7.4 C 0 km/h
656 06-03-2003 14:00:12 7.3 C 6.56 g/m*3 7.3 C 0 km/h
657 06-03-2003 14:06:12 7.1 C 6.47 g/m*3 7.1 C 0 km/h
658 06-03-2003 14:12:12 7 C 6.43 g/m*3 7 C 0 km/h
659 06-03-2003 14:18:12 7 C 6.43 g/m*3 7 C 0 km/h
660 06-03-2003 14:24:12 7 C 6.43 g/m*3 7 C 0 km/h
661 06-03-2003 14:30:12 6.9 C 6.39 g/m*3 6.9 C 0 km/h
662 06-03-2003 14:36:12 6.8 C 6.42 g/m*3 6.8 C 0 km/h
663 06-03-2003 14:42:12 6.9 C 6.54 g/m*3 6.9 C 0 km/h
664 06-03-2003 14:48:12 6.9 C 6.62 g/m*3 6.9 C 0 km/h
665 06-03-2003 14:54:12 6.9 C 6.62 g/m*3 6.9 C 0 km/h
666 06-03-2003 15:00:12 6.9 C 6.62 g/m*3 6.9 C 0 km/h
667 06-03-2003 15:06:12 6.9 C 6.62 g/m*3 6.9 C 0 km/h
668 06-03-2003 15:12:12 6.9 C 6.62 g/m*3 6.9 C 0 km/h
669 06-03-2003 15:18:12 6.9 C 6.62 g/m*3 6.9 C 0 km/h
670 06-03-2003 15:24:12 6.7 C 6.38 g/m*3 6.7 C 0 km/h
671 06-03-2003 15:30:12 6.7 C 6.38 g/m*3 6.7 C 0 km/h
672 06-03-2003 15:36:12 6.7 C 6.38 g/m*3 6.7 C 0 km/h
673 06-03-2003 15:42:12 6.7 C 6.38 g/m*3 6.7 C 0 km/h
674 06-03-2003 15:48:12 6.7 C 6.38 g/m*3 6.7 C 0 km/h
675 06-03-2003 15:54:12 6.7 C 6.38 g/m*3 6.7 C 0 km/h
Sensor: Nr:Datum:Temp:Abs-Feuchte:Windchill:Wind:
Aussen-T/F 676 06-03-2003 16:00:03 6.7 C 6.38 g/m*3 6.7 C 0 km/h
677 06-03-2003 16:06:03 6.7 C 6.38 g/m*3 6.7 C 0 km/h
678 06-03-2003 16:12:03 6.7 C 6.38 g/m*3 6.7 C 0 km/h
679 06-03-2003 16:18:03 6.7 C 6.38 g/m*3 6.7 C 0 km/h
680 06-03-2003 16:24:03 6.7 C 6.38 g/m*3 6.7 C 0 km/h
681 06-03-2003 16:30:03 6.7 C 6.38 g/m*3 6.7 C 0 km/h
682 06-03-2003 16:36:03 6.7 C 6.38 g/m*3 6.7 C 0 km/h
683 06-03-2003 16:42:03 6.2 C 6.18 g/m*3 6.2 C 0 km/h
684 06-03-2003 16:48:03 6.2 C 6.18 g/m*3 6.2 C 0 km/h
685 06-03-2003 16:54:03 6.2 C 6.18 g/m*3 6.2 C 0 km/h
686 06-03-2003 17:00:03 6.2 C 6.18 g/m*3 6.2 C 0 km/h
687 06-03-2003 17:06:03 6.2 C 6.18 g/m*3 6.2 C 0 km/h
688 06-03-2003 17:12:03 6.2 C 6.18 g/m*3 6.2 C 0 km/h
689 06-03-2003 17:18:03 6.2 C 6.1 g/m*3 6.2 C 0 km/h
690 06-03-2003 17:24:03 6.2 C 6.1 g/m*3 6.2 C 0 km/h
691 06-03-2003 17:30:03 6.2 C 6.1 g/m*3 6.2 C 0 km/h
692 06-03-2003 17:36:03 6.2 C 6.1 g/m*3 6.2 C 0 km/h
693 06-03-2003 17:42:53 6.1 C 6.14 g/m*3 6.1 C 0 km/h
694 06-03-2003 17:48:08 6.1 C 6.14 g/m*3 6.1 C 0 km/h
695 06-03-2003 17:53:12 6 C 6.1 g/m*3 6 C 0 km/h
696 06-03-2003 18:03:12 6 C 6.1 g/m*3 6 C 0 km/h
697 06-03-2003 18:13:12 6 C 6.17 g/m*3 6 C 0 km/h
698 06-03-2003 18:23:12 6 C 6.17 g/m*3 6 C 0 km/h
699 06-03-2003 18:33:12 5.9 C 6.2 g/m*3 5.9 C 0 km/h
700 06-03-2003 18:43:12 5.9 C 6.2 g/m*3 5.9 C 0 km/h
Sensor: Nr:Datum:Temp:Abs-Feuchte:Windchill:Wind:
Aussen-T/F 701 06-03-2003 18:53:12 6 C 6.17 g/m*3 6 C 0 km/h
702 06-03-2003 19:03:12 5.9 C 6.13 g/m*3 5.9 C 0 km/h
703 06-03-2003 19:13:12 6 C 6.1 g/m*3 6 C 0 km/h
704 06-03-2003 19:23:12 6 C 6.02 g/m*3 6 C 0 km/h
705 06-03-2003 19:33:12 6 C 6.02 g/m*3 6 C 0 km/h
706 06-03-2003 19:43:12 6.3 C 5.92 g/m*3 6.3 C 0 km/h
707 06-03-2003 19:53:12 6.2 C 5.88 g/m*3 6.2 C 0 km/h
708 06-03-2003 20:04:26 6.2 C 5.88 g/m*3 6.2 C 0 km/h
709 06-03-2003 20:14:26 6.1 C 5.92 g/m*3 6.1 C 0 km/h
710 06-03-2003 20:24:26 5.9 C 5.98 g/m*3 5.9 C 0 km/h
711 06-03-2003 20:44:26 6 C 5.88 g/m*3 6 C 0 km/h
712 06-03-2003 20:54:26 5.7 C 5.84 g/m*3 5.7 C 0 km/h
713 06-03-2003 21:04:26 6 C 5.88 g/m*3 6 C 0 km/h
714 06-03-2003 21:14:26 5.5 C 5.76 g/m*3 5.5 C 0 km/h
715 06-03-2003 21:24:26 5.2 C 5.71 g/m*3 5.2 C 0 km/h
716 06-03-2003 21:34:26 5.4 C 5.79 g/m*3 5.4 C 0 km/h
717 06-03-2003 21:44:26 5.6 C 5.8 g/m*3 5.6 C 0 km/h
718 06-03-2003 21:54:26 5.9 C 5.84 g/m*3 5.9 C 0 km/h
719 06-03-2003 22:04:26 6 C 5.66 g/m*3 6 C 0 km/h
720 06-03-2003 22:14:26 5.8 C 5.66 g/m*3 5.8 C 0 km/h
721 06-03-2003 22:24:26 5.8 C 5.73 g/m*3 5.8 C 0 km/h
722 06-03-2003 22:34:26 5.6 C 5.66 g/m*3 5.6 C 0 km/h
723 06-03-2003 22:44:26 5.8 C 5.66 g/m*3 5.8 C 0 km/h
724 06-03-2003 22:54:26 5.9 C 5.62 g/m*3 5.9 C 0 km/h
725 06-03-2003 23:04:26 5.9 C 5.48 g/m*3 5.9 C 0 km/h
Sensor: Nr:Datum:Temp:Abs-Feuchte:Windchill:Wind:
Aussen-T/F 726 06-03-2003 23:14:26 5.8 C 5.44 g/m*3 5.8 C 0 km/h
727 06-03-2003 23:24:26 5.9 C 5.48 g/m*3 5.9 C 0 km/h
728 06-03-2003 23:34:26 6 C 5.37 g/m*3 6 C 0 km/h
729 06-03-2003 23:44:26 5.9 C 5.48 g/m*3 5.9 C 0 km/h
730 06-03-2003 23:54:26 5.9 C 5.48 g/m*3 5.9 C 0 km/h
731 07-03-2003 00:04:26 5.6 C 5.44 g/m*3 5.6 C 0 km/h
732 07-03-2003 00:14:26 5.5 C 5.48 g/m*3 5.5 C 0 km/h
733 07-03-2003 00:24:26 5.2 C 5.44 g/m*3 5.2 C 0 km/h
734 07-03-2003 00:34:26 5.1 C 5.4 g/m*3 5.1 C 0 km/h
735 07-03-2003 00:44:26 4.6 C 5.29 g/m*3 4.6 C 0 km/h
736 07-03-2003 00:54:26 4.1 C 5.25 g/m*3 4.1 C 0 km/h
737 07-03-2003 01:04:26 3.7 C 5.17 g/m*3 3.7 C 0 km/h
738 07-03-2003 01:14:26 3.5 C 5.23 g/m*3 3.5 C 0 km/h
739 07-03-2003 01:24:26 3.2 C 5.12 g/m*3 3.2 C 0 km/h
740 07-03-2003 01:34:26 2.9 C 5.08 g/m*3 2.9 C 0 km/h
741 07-03-2003 01:44:26 2.9 C 5.08 g/m*3 2.9 C 0 km/h
742 07-03-2003 01:54:26 2.7 C 5.07 g/m*3 2.7 C 0 km/h
743 07-03-2003 02:04:26 2.4 C 4.91 g/m*3 2.4 C 0 km/h
744 07-03-2003 02:14:26 2.5 C 5 g/m*3 2.5 C 0 km/h
745 07-03-2003 02:24:26 2.3 C 4.93 g/m*3 2.3 C 0 km/h
746 07-03-2003 02:34:26 2.7 C 5.13 g/m*3 2.7 C 0 km/h
747 07-03-2003 02:44:26 2.7 C 5.19 g/m*3 2.7 C 0 km/h
748 07-03-2003 02:54:26 3 C 5.23 g/m*3 3 C 0 km/h
749 07-03-2003 03:04:26 3.1 C 5.27 g/m*3 3.1 C 0 km/h
750 07-03-2003 03:14:26 3.2 C 5.3 g/m*3 3.2 C 0 km/h
Sensor: Nr:Datum:Temp:Abs-Feuchte:Windchill:Wind:
Aussen-T/F 751 07-03-2003 03:24:26 3.3 C 5.28 g/m*3 3.3 C 0 km/h
752 07-03-2003 03:34:26 3.3 C 5.22 g/m*3 3.3 C 0 km/h
753 07-03-2003 03:44:26 3.4 C 5.25 g/m*3 3.4 C 0 km/h
754 07-03-2003 03:54:26 3.3 C 5.16 g/m*3 3.3 C 0 km/h
755 07-03-2003 04:04:26 3.4 C 5.19 g/m*3 3.4 C 0 km/h
756 07-03-2003 04:14:26 3.4 C 5.19 g/m*3 3.4 C 0 km/h
757 07-03-2003 04:24:26 3.3 C 5.16 g/m*3 3.3 C 0 km/h
758 07-03-2003 04:34:26 3.2 C 5.12 g/m*3 3.2 C 0 km/h
759 07-03-2003 04:44:26 2.9 C 5.02 g/m*3 2.9 C 0 km/h
760 07-03-2003 04:54:26 2.5 C 4.94 g/m*3 2.5 C 0 km/h
761 07-03-2003 05:04:26 2.3 C 4.88 g/m*3 2.3 C 0 km/h
762 07-03-2003 05:14:26 2.1 C 4.81 g/m*3 2.1 C 0 km/h
763 07-03-2003 05:24:26 1.9 C 4.8 g/m*3 1.9 C 0 km/h
764 07-03-2003 05:34:26 1.4 C 4.59 g/m*3 1.4 C 0 km/h
765 07-03-2003 05:44:26 1.2 C 4.58 g/m*3 1.2 C 0 km/h
766 07-03-2003 05:54:26 1.2 C 4.58 g/m*3 1.2 C 0 km/h
767 07-03-2003 06:04:26 1.1 C 4.55 g/m*3 1.1 C 0 km/h
768 07-03-2003 06:14:26 1.2 C 4.63 g/m*3 1.2 C 0 km/h
769 07-03-2003 06:24:26 1.1 C 4.6 g/m*3 1.1 C 0 km/h
770 07-03-2003 06:34:26 1.1 C 4.6 g/m*3 1.1 C 0 km/h
771 07-03-2003 06:44:26 1.2 C 4.68 g/m*3 1.2 C 0 km/h
772 07-03-2003 06:54:26 1.1 C 4.7 g/m*3 1.1 C 0 km/h
773 07-03-2003 07:04:26 0.9 C 4.69 g/m*3 0.9 C 0 km/h
774 07-03-2003 07:14:26 1 C 4.67 g/m*3 1 C 0 km/h
775 07-03-2003 07:24:26 1 C 4.67 g/m*3 1 C 0 km/h
Sensor: Nr:Datum:Temp:Abs-Feuchte:Windchill:Wind:
Aussen-T/F 776 07-03-2003 07:34:26 1.1 C 4.76 g/m*3 1.1 C 0 km/h
777 07-03-2003 07:44:26 1.3 C 4.82 g/m*3 1.3 C 0 km/h
778 07-03-2003 07:54:26 1.7 C 4.95 g/m*3 1.7 C 0 km/h
779 07-03-2003 08:04:26 1.7 C 4.95 g/m*3 1.7 C 0 km/h
780 07-03-2003 08:14:26 2.1 C 4.98 g/m*3 2.1 C 0 km/h
781 07-03-2003 08:24:26 2.3 C 5.05 g/m*3 2.3 C 0 km/h
782 07-03-2003 08:34:26 2.1 C 4.92 g/m*3 2.1 C 0 km/h
783 07-03-2003 08:44:26 2 C 4.89 g/m*3 2 C 0 km/h
784 07-03-2003 08:54:26 2.3 C 4.99 g/m*3 2.3 C 0 km/h
785 07-03-2003 09:04:26 2.5 C 5 g/m*3 2.5 C 0 km/h
786 07-03-2003 09:14:26 2.7 C 5.01 g/m*3 2.7 C 0 km/h
787 07-03-2003 09:24:26 2.9 C 5.02 g/m*3 2.9 C 0 km/h
788 07-03-2003 09:34:26 3.3 C 5.1 g/m*3 3.3 C 0 km/h
789 07-03-2003 09:44:26 3.5 C 5.1 g/m*3 3.5 C 0 km/h
790 07-03-2003 09:54:26 3.5 C 5.04 g/m*3 3.5 C 0 km/h
791 07-03-2003 10:04:26 3.6 C 5.01 g/m*3 3.6 C 0 km/h
792 07-03-2003 10:14:26 3.7 C 5.05 g/m*3 3.7 C 0 km/h
793 07-03-2003 10:24:26 4.4 C 5.16 g/m*3 4.4 C 0 km/h
794 07-03-2003 10:34:26 4.9 C 5.27 g/m*3 4.9 C 0 km/h
795 07-03-2003 10:44:26 5.5 C 5.34 g/m*3 5.5 C 0 km/h
796 07-03-2003 10:54:26 5.8 C 5.3 g/m*3 5.8 C 0 km/h
797 07-03-2003 11:04:26 5.8 C 5.37 g/m*3 5.8 C 0 km/h
798 07-03-2003 11:14:26 5.8 C 5.3 g/m*3 5.8 C 0 km/h
799 07-03-2003 11:24:26 6.2 C 5.37 g/m*3 6.2 C 0 km/h
800 07-03-2003 11:34:26 6.6 C 5.51 g/m*3 6.6 C 0 km/h
Sensor: Nr:Datum:Temp:Abs-Feuchte:Windchill:Wind:
Aussen-T/F 801 07-03-2003 11:44:26 6.4 C 5.36 g/m*3 6.4 C 0 km/h
802 07-03-2003 11:54:26 6.3 C 5.4 g/m*3 6.3 C 0 km/h
803 07-03-2003 12:04:26 6.9 C 5.85 g/m*3 6.9 C 0 km/h
804 07-03-2003 12:14:26 7.7 C 5.92 g/m*3 7.7 C 0 km/h
805 07-03-2003 12:24:26 8.3 C 6.07 g/m*3 8.3 C 0 km/h
806 07-03-2003 12:34:26 8.9 C 6.04 g/m*3 8.9 C 0 km/h
807 07-03-2003 12:44:26 8.9 C 5.87 g/m*3 8.9 C 0 km/h
808 07-03-2003 12:54:26 9.3 C 5.75 g/m*3 9.3 C 0 km/h
809 07-03-2003 13:04:26 9.4 C 5.79 g/m*3 9.4 C 0 km/h
810 07-03-2003 13:14:26 9.7 C 5.72 g/m*3 9.7 C 0 km/h
811 07-03-2003 13:24:26 10.1 C 5.48 g/m*3 10.1 C 0 km/h
812 07-03-2003 13:34:26 10.7 C 5.7 g/m*3 10.7 C 0 km/h
813 07-03-2003 13:44:26 10.8 C 5.54 g/m*3 10.8 C 0 km/h
814 07-03-2003 13:54:26 11.6 C 5.51 g/m*3 11.6 C 0 km/h
815 07-03-2003 14:04:26 11.3 C 5.41 g/m*3 11.3 C 0 km/h
816 07-03-2003 14:14:26 12 C 5.44 g/m*3 12 C 0 km/h
817 07-03-2003 14:24:26 12.2 C 5.5 g/m*3 12.2 C 0 km/h
818 07-03-2003 14:34:26 12.1 C 5.25 g/m*3 12.1 C 0 km/h
819 07-03-2003 14:44:26 11.8 C 5.16 g/m*3 11.8 C 0 km/h
820 07-03-2003 14:54:26 12 C 5.22 g/m*3 12 C 0 km/h
821 07-03-2003 15:04:26 12 C 4.9 g/m*3 12 C 0 km/h
822 07-03-2003 15:14:26 11.7 C 4.92 g/m*3 11.7 C 0 km/h
823 07-03-2003 15:24:26 11.9 C 5.08 g/m*3 11.9 C 0 km/h
824 07-03-2003 15:34:26 11.9 C 4.87 g/m*3 11.9 C 0 km/h
825 07-03-2003 15:44:26 11.7 C 4.71 g/m*3 11.7 C 0 km/h
Sensor: Nr:Datum:Temp:Abs-Feuchte:Windchill:Wind:
Aussen-T/F 826 07-03-2003 15:54:26 11.2 C 4.66 g/m*3 11.2 C 0 km/h
827 07-03-2003 16:34:08 11 C 4.8 g/m*3 11 C 0 km/h
828 07-03-2003 16:44:08 11 C 4.8 g/m*3 11 C 0 km/h
829 07-03-2003 16:54:08 11 C 4.8 g/m*3 11 C 0 km/h
830 07-03-2003 17:04:08 10.6 C 4.88 g/m*3 10.6 C 0 km/h
831 07-03-2003 17:14:13 10.4 C 4.92 g/m*3 10.4 C 0 km/h
832 07-03-2003 17:24:13 10.4 C 4.92 g/m*3 10.4 C 0 km/h
833 07-03-2003 17:34:14 9.7 C 4.79 g/m*3 9.7 C 0 km/h
834 07-03-2003 17:44:14 9.6 C 4.67 g/m*3 9.6 C 0 km/h
835 07-03-2003 17:54:14 9.1 C 4.7 g/m*3 9.1 C 0 km/h
836 07-03-2003 18:04:13 8.6 C 5.24 g/m*3 8.6 C 0 km/h
837 07-03-2003 18:14:13 8.3 C 5.14 g/m*3 8.3 C 0 km/h
838 07-03-2003 18:24:13 8 C 5.13 g/m*3 8 C 0 km/h
839 07-03-2003 18:34:13 7.7 C 5.27 g/m*3 7.7 C 0 km/h
840 07-03-2003 18:44:13 7.4 C 5.09 g/m*3 7.4 C 0 km/h
841 07-03-2003 18:54:13 7.4 C 4.93 g/m*3 7.4 C 0 km/h
842 07-03-2003 19:04:15 7.2 C 4.87 g/m*3 7.2 C 0 km/h
843 07-03-2003 19:14:15 7.3 C 4.98 g/m*3 7.3 C 0 km/h
844 07-03-2003 19:24:15 7.4 C 4.93 g/m*3 7.4 C 0 km/h
845 07-03-2003 19:34:15 7.6 C 4.99 g/m*3 7.6 C 0 km/h
846 07-03-2003 19:44:15 7.3 C 4.98 g/m*3 7.3 C 0 km/h
847 07-03-2003 19:54:15 7.3 C 5.06 g/m*3 7.3 C 0 km/h
848 07-03-2003 20:04:14 7.5 C 5.04 g/m*3 7.5 C 0 km/h
849 07-03-2003 20:14:14 7.5 C 5.04 g/m*3 7.5 C 0 km/h
850 07-03-2003 20:24:14 7.5 C 5.04 g/m*3 7.5 C 0 km/h
Sensor: Nr:Datum:Temp:Abs-Feuchte:Windchill:Wind:
Aussen-T/F 851 07-03-2003 20:34:14 7.5 C 5.04 g/m*3 7.5 C 0 km/h
852 07-03-2003 20:44:14 6.5 C 5.1 g/m*3 6.5 C 0 km/h
853 07-03-2003 20:54:14 6.5 C 5.1 g/m*3 6.5 C 0 km/h
854 07-03-2003 21:05:12 5.7 C 5.05 g/m*3 5.7 C 0 km/h
855 07-03-2003 21:15:12 5.2 C 4.89 g/m*3 5.2 C 0 km/h
856 07-03-2003 21:25:12 5.1 C 4.86 g/m*3 5.1 C 0 km/h
857 07-03-2003 21:35:12 4.7 C 4.8 g/m*3 4.7 C 0 km/h
858 07-03-2003 21:45:12 4.6 C 4.76 g/m*3 4.6 C 0 km/h
859 07-03-2003 21:55:12 4.4 C 4.77 g/m*3 4.4 C 0 km/h
860 07-03-2003 22:05:12 4.3 C 4.74 g/m*3 4.3 C 0 km/h
861 07-03-2003 22:15:12 4.3 C 4.67 g/m*3 4.3 C 0 km/h
862 07-03-2003 22:25:12 3.8 C 4.64 g/m*3 3.8 C 0 km/h
863 07-03-2003 22:35:12 3.7 C 4.67 g/m*3 3.7 C 0 km/h
864 07-03-2003 22:45:12 3.8 C 4.64 g/m*3 3.8 C 0 km/h
865 07-03-2003 22:55:12 3.7 C 4.61 g/m*3 3.7 C 0 km/h
866 07-03-2003 23:05:12 3.6 C 4.58 g/m*3 3.6 C 0 km/h
867 07-03-2003 23:15:12 4.1 C 4.67 g/m*3 4.1 C 0 km/h
868 07-03-2003 23:25:12 3.8 C 4.64 g/m*3 3.8 C 0 km/h
869 07-03-2003 23:35:12 3.5 C 4.55 g/m*3 3.5 C 0 km/h
870 07-03-2003 23:45:12 3.5 C 4.61 g/m*3 3.5 C 0 km/h
871 07-03-2003 23:55:12 3.5 C 4.61 g/m*3 3.5 C 0 km/h
872 08-03-2003 00:05:12 3.5 C 4.55 g/m*3 3.5 C 0 km/h
873 08-03-2003 00:15:12 3.3 C 4.55 g/m*3 3.3 C 0 km/h
874 08-03-2003 00:25:12 3.1 C 4.55 g/m*3 3.1 C 0 km/h
875 08-03-2003 00:35:12 3.4 C 4.7 g/m*3 3.4 C 0 km/h
Sensor: Nr:Datum:Temp:Abs-Feuchte:Windchill:Wind:
Aussen-T/F 876 08-03-2003 00:45:12 3.9 C 4.8 g/m*3 3.9 C 0 km/h
877 08-03-2003 00:55:12 5.4 C 4.67 g/m*3 5.4 C 0 km/h
878 08-03-2003 01:05:12 5.4 C 4.6 g/m*3 5.4 C 0 km/h
879 08-03-2003 01:15:12 5.1 C 4.51 g/m*3 5.1 C 0 km/h
880 08-03-2003 01:25:12 4.8 C 4.56 g/m*3 4.8 C 0 km/h
881 08-03-2003 01:35:12 5 C 4.48 g/m*3 5 C 0 km/h
882 08-03-2003 01:45:12 5 C 4.48 g/m*3 5 C 0 km/h
883 08-03-2003 01:55:12 5.1 C 4.51 g/m*3 5.1 C 0 km/h
884 08-03-2003 02:05:12 4.9 C 4.59 g/m*3 4.9 C 0 km/h
885 08-03-2003 02:15:12 4.7 C 4.6 g/m*3 4.7 C 0 km/h
886 08-03-2003 02:25:12 4.8 C 4.63 g/m*3 4.8 C 0 km/h
887 08-03-2003 02:35:12 4.9 C 4.59 g/m*3 4.9 C 0 km/h
888 08-03-2003 02:45:12 4.6 C 4.57 g/m*3 4.6 C 0 km/h
889 08-03-2003 02:55:12 4.6 C 4.57 g/m*3 4.6 C 0 km/h
890 08-03-2003 03:05:12 4.3 C 4.61 g/m*3 4.3 C 0 km/h
891 08-03-2003 03:15:12 4.1 C 4.61 g/m*3 4.1 C 0 km/h
892 08-03-2003 03:25:12 4.4 C 4.64 g/m*3 4.4 C 0 km/h
893 08-03-2003 03:35:12 4.4 C 4.64 g/m*3 4.4 C 0 km/h
894 08-03-2003 03:45:12 4.2 C 4.64 g/m*3 4.2 C 0 km/h
895 08-03-2003 03:55:12 4.5 C 4.67 g/m*3 4.5 C 0 km/h
896 08-03-2003 04:05:12 5.1 C 4.65 g/m*3 5.1 C 0 km/h
897 08-03-2003 04:15:12 5.5 C 4.64 g/m*3 5.5 C 0 km/h
898 08-03-2003 04:25:12 5.3 C 4.57 g/m*3 5.3 C 0 km/h
899 08-03-2003 04:35:12 5.2 C 4.68 g/m*3 5.2 C 0 km/h
900 08-03-2003 04:45:12 5.2 C 4.68 g/m*3 5.2 C 0 km/h
Sensor: Nr:Datum:Temp:Abs-Feuchte:Windchill:Wind:
Aussen-T/F 901 08-03-2003 04:55:12 5.3 C 4.71 g/m*3 5.3 C 0 km/h
902 08-03-2003 05:05:12 4.9 C 4.73 g/m*3 4.9 C 0 km/h
903 08-03-2003 05:15:12 5.2 C 4.82 g/m*3 5.2 C 0 km/h
904 08-03-2003 05:25:12 5.3 C 4.78 g/m*3 5.3 C 0 km/h
905 08-03-2003 05:35:12 5.1 C 4.72 g/m*3 5.1 C 0 km/h
906 08-03-2003 05:45:12 5 C 4.76 g/m*3 5 C 0 km/h
907 08-03-2003 05:55:12 5.1 C 4.79 g/m*3 5.1 C 0 km/h
908 08-03-2003 06:05:12 5.2 C 4.75 g/m*3 5.2 C 0 km/h
909 08-03-2003 06:15:12 5.4 C 4.81 g/m*3 5.4 C 0 km/h
910 08-03-2003 06:25:12 5.1 C 4.72 g/m*3 5.1 C 0 km/h
911 08-03-2003 06:35:12 4.9 C 4.79 g/m*3 4.9 C 0 km/h
912 08-03-2003 06:45:12 4.5 C 4.73 g/m*3 4.5 C 0 km/h
913 08-03-2003 06:55:12 4.4 C 4.77 g/m*3 4.4 C 0 km/h
914 08-03-2003 07:05:12 4.3 C 4.74 g/m*3 4.3 C 0 km/h
915 08-03-2003 07:15:12 4.3 C 4.8 g/m*3 4.3 C 0 km/h
916 08-03-2003 07:25:12 4.3 C 4.8 g/m*3 4.3 C 0 km/h
917 08-03-2003 07:35:12 4.4 C 4.83 g/m*3 4.4 C 0 km/h
918 08-03-2003 07:45:12 4.8 C 4.83 g/m*3 4.8 C 0 km/h
919 08-03-2003 07:55:12 5.1 C 4.79 g/m*3 5.1 C 0 km/h
920 08-03-2003 08:05:12 5.2 C 4.82 g/m*3 5.2 C 0 km/h
921 08-03-2003 08:15:12 5.2 C 4.82 g/m*3 5.2 C 0 km/h
922 08-03-2003 08:25:12 5.3 C 4.85 g/m*3 5.3 C 0 km/h
923 08-03-2003 08:35:12 5.6 C 4.95 g/m*3 5.6 C 0 km/h
924 08-03-2003 08:45:12 5.8 C 4.94 g/m*3 5.8 C 0 km/h
925 08-03-2003 08:55:12 6.1 C 4.97 g/m*3 6.1 C 0 km/h
Sensor: Nr:Datum:Temp:Abs-Feuchte:Windchill:Wind:
Aussen-T/F 926 08-03-2003 09:05:12 6.4 C 4.99 g/m*3 6.4 C 0 km/h
927 08-03-2003 09:15:12 6.6 C 4.98 g/m*3 6.6 C 0 km/h
928 08-03-2003 09:25:12 6.7 C 4.94 g/m*3 6.7 C 0 km/h
929 08-03-2003 09:35:12 6.8 C 4.89 g/m*3 6.8 C 0 km/h
930 08-03-2003 09:45:12 6.9 C 4.93 g/m*3 6.9 C 0 km/h
931 08-03-2003 09:55:12 7 C 4.88 g/m*3 7 C 0 km/h
932 08-03-2003 10:05:12 7.2 C 4.95 g/m*3 7.2 C 0 km/h
933 08-03-2003 10:15:12 7.4 C 4.93 g/m*3 7.4 C 0 km/h
934 08-03-2003 10:25:12 7.8 C 4.98 g/m*3 7.8 C 0 km/h
935 08-03-2003 10:35:12 8.1 C 4.91 g/m*3 8.1 C 0 km/h
936 08-03-2003 10:45:12 8 C 4.88 g/m*3 8 C 0 km/h
937 08-03-2003 10:55:12 8 C 4.8 g/m*3 8 C 0 km/h
938 08-03-2003 11:05:13 8.3 C 4.89 g/m*3 8.3 C 0 km/h
939 08-03-2003 11:15:13 8.3 C 4.89 g/m*3 8.3 C 0 km/h
940 08-03-2003 11:25:13 8.3 C 4.89 g/m*3 8.3 C 0 km/h
941 08-03-2003 11:35:13 8.3 C 4.89 g/m*3 8.3 C 0 km/h
942 08-03-2003 11:45:13 8.3 C 4.89 g/m*3 8.3 C 0 km/h
943 08-03-2003 11:55:13 8.3 C 4.89 g/m*3 8.3 C 0 km/h
944 08-03-2003 12:05:58 8.3 C 4.89 g/m*3 8.3 C 0 km/h
945 08-03-2003 12:15:06 8.3 C 4.89 g/m*3 8.3 C 0 km/h
946 08-03-2003 12:25:13 8.3 C 4.89 g/m*3 8.3 C 0 km/h
947 08-03-2003 12:35:13 8.3 C 4.89 g/m*3 8.3 C 0 km/h
948 08-03-2003 12:45:13 8.3 C 4.89 g/m*3 8.3 C 0 km/h
949 08-03-2003 12:55:13 10.1 C 4.54 g/m*3 10.1 C 0 km/h
950 08-03-2003 13:05:23 10.1 C 4.54 g/m*3 10.1 C 0 km/h
Sensor: Nr:Datum:Temp:Abs-Feuchte:Windchill:Wind:
Aussen-T/F 951 08-03-2003 13:15:23 10.4 C 4.53 g/m*3 10.4 C 0 km/h
952 08-03-2003 13:25:13 10.4 C 4.53 g/m*3 10.4 C 0 km/h
953 08-03-2003 13:35:13 10.4 C 4.53 g/m*3 10.4 C 0 km/h
954 08-03-2003 13:45:13 10.4 C 4.53 g/m*3 10.4 C 0 km/h
955 08-03-2003 13:55:13 10.4 C 4.53 g/m*3 10.4 C 0 km/h
956 08-03-2003 14:05:12 11.8 C 4.74 g/m*3 11.8 C 0 km/h
957 08-03-2003 14:15:12 11.8 C 4.63 g/m*3 11.8 C 0 km/h
958 08-03-2003 14:25:12 12.2 C 4.53 g/m*3 12.2 C 0 km/h
959 08-03-2003 14:35:12 11.7 C 4.39 g/m*3 11.7 C 0 km/h
960 08-03-2003 14:45:12 12.1 C 4.5 g/m*3 12.1 C 0 km/h
961 08-03-2003 14:55:12 12.4 C 4.59 g/m*3 12.4 C 0 km/h
962 08-03-2003 15:05:12 11.7 C 4.5 g/m*3 11.7 C 0 km/h
963 08-03-2003 15:25:12 11.5 C 4.54 g/m*3 11.5 C 0 km/h
964 08-03-2003 15:35:12 11.5 C 4.44 g/m*3 11.5 C 0 km/h
965 08-03-2003 15:45:12 11.5 C 4.44 g/m*3 11.5 C 0 km/h
966 08-03-2003 15:55:12 11.5 C 4.44 g/m*3 11.5 C 0 km/h
967 08-03-2003 16:05:11 11.3 C 4.28 g/m*3 11.3 C 0 km/h
968 08-03-2003 16:15:11 11.4 C 4.41 g/m*3 11.4 C 0 km/h
969 08-03-2003 16:25:11 11.4 C 4.31 g/m*3 11.4 C 0 km/h
970 08-03-2003 16:35:11 11.5 C 4.34 g/m*3 11.5 C 0 km/h
971 08-03-2003 16:45:11 11.5 C 4.34 g/m*3 11.5 C 0 km/h
972 08-03-2003 16:55:11 11.5 C 4.34 g/m*3 11.5 C 0 km/h
973 08-03-2003 17:05:12 11.5 C 4.34 g/m*3 11.5 C 0 km/h
974 08-03-2003 17:15:12 10.8 C 4.35 g/m*3 10.8 C 0 km/h
975 08-03-2003 17:25:12 10.8 C 4.35 g/m*3 10.8 C 0 km/h
Sensor: Nr:Datum:Temp:Abs-Feuchte:Windchill:Wind:
Aussen-T/F 976 08-03-2003 17:35:12 10.8 C 4.35 g/m*3 10.8 C 0 km/h
977 08-03-2003 17:45:12 10.8 C 4.35 g/m*3 10.8 C 0 km/h
978 08-03-2003 17:55:12 10.8 C 4.35 g/m*3 10.8 C 0 km/h
979 08-03-2003 18:40:12 9.9 C 4.48 g/m*3 9.9 C 0 km/h
980 08-03-2003 18:52:12 9.8 C 4.55 g/m*3 9.8 C 0 km/h
981 08-03-2003 19:04:13 9.6 C 4.58 g/m*3 9.6 C 0 km/h
982 08-03-2003 19:16:13 9.2 C 4.46 g/m*3 9.2 C 0 km/h
983 08-03-2003 19:28:13 9.1 C 4.53 g/m*3 9.1 C 0 km/h
984 08-03-2003 19:40:13 8.9 C 4.64 g/m*3 8.9 C 0 km/h
985 08-03-2003 19:52:13 8.9 C 4.73 g/m*3 8.9 C 0 km/h
986 08-03-2003 20:04:13 9 C 4.76 g/m*3 9 C 0 km/h
987 08-03-2003 20:16:13 8.6 C 4.81 g/m*3 8.6 C 0 km/h
988 08-03-2003 20:28:13 9 C 4.76 g/m*3 9 C 0 km/h
989 08-03-2003 20:40:13 9 C 4.76 g/m*3 9 C 0 km/h
990 08-03-2003 20:52:13 9 C 4.76 g/m*3 9 C 0 km/h
991 08-03-2003 21:04:12 9 C 4.76 g/m*3 9 C 0 km/h
992 08-03-2003 21:16:12 9 C 4.76 g/m*3 9 C 0 km/h
993 08-03-2003 21:40:12 8.8 C 4.87 g/m*3 8.8 C 0 km/h
994 08-03-2003 21:52:12 8.4 C 4.84 g/m*3 8.4 C 0 km/h
995 08-03-2003 22:05:13 8.4 C 4.84 g/m*3 8.4 C 0 km/h
996 08-03-2003 22:17:13 8.7 C 4.84 g/m*3 8.7 C 0 km/h
997 08-03-2003 22:29:13 8.8 C 4.87 g/m*3 8.8 C 0 km/h
998 08-03-2003 22:41:13 8.9 C 4.91 g/m*3 8.9 C 0 km/h
999 08-03-2003 22:53:13 8.8 C 4.87 g/m*3 8.8 C 0 km/h
1000 08-03-2003 23:05:13 8.8 C 4.87 g/m*3 8.8 C 0 km/h
Sensor: Nr:Datum:Temp:Abs-Feuchte:Windchill:Wind:
Aussen-T/F 1001 08-03-2003 23:17:13 9 C 4.94 g/m*3 9 C 0 km/h
1002 08-03-2003 23:29:13 9 C 4.94 g/m*3 9 C 0 km/h
1003 08-03-2003 23:41:13 9 C 4.85 g/m*3 9 C 0 km/h
1004 08-03-2003 23:53:13 9 C 4.85 g/m*3 9 C 0 km/h
1005 09-03-2003 00:05:13 9 C 4.85 g/m*3 9 C 0 km/h
1006 09-03-2003 00:17:13 9 C 4.85 g/m*3 9 C 0 km/h
1007 09-03-2003 00:29:13 9 C 4.85 g/m*3 9 C 0 km/h
1008 09-03-2003 00:41:13 9 C 4.85 g/m*3 9 C 0 km/h
1009 09-03-2003 00:53:13 9 C 4.94 g/m*3 9 C 0 km/h
1010 09-03-2003 01:05:13 8.2 C 5.28 g/m*3 8.2 C 0 km/h
1011 09-03-2003 01:17:13 8 C 5.21 g/m*3 8 C 0 km/h
1012 09-03-2003 01:29:13 8.4 C 5.17 g/m*3 8.4 C 0 km/h
1013 09-03-2003 01:41:13 8.5 C 5.12 g/m*3 8.5 C 0 km/h
1014 09-03-2003 01:53:13 8.6 C 5.16 g/m*3 8.6 C 0 km/h
1015 09-03-2003 02:05:13 8.4 C 5.17 g/m*3 8.4 C 0 km/h
1016 09-03-2003 02:17:13 8 C 5.37 g/m*3 8 C 0 km/h
1017 09-03-2003 02:29:13 7.4 C 5.65 g/m*3 7.4 C 0 km/h
1018 09-03-2003 02:41:13 7.4 C 5.57 g/m*3 7.4 C 0 km/h
1019 09-03-2003 02:53:13 7.5 C 5.44 g/m*3 7.5 C 0 km/h
1020 09-03-2003 03:05:13 7.7 C 5.43 g/m*3 7.7 C 0 km/h
1021 09-03-2003 03:17:13 8 C 5.29 g/m*3 8 C 0 km/h
1022 09-03-2003 03:29:13 8.1 C 5.24 g/m*3 8.1 C 0 km/h
1023 09-03-2003 03:41:13 8 C 5.21 g/m*3 8 C 0 km/h
1024 09-03-2003 03:53:13 8.2 C 5.19 g/m*3 8.2 C 0 km/h
1025 09-03-2003 04:05:13 8.1 C 5.16 g/m*3 8.1 C 0 km/h
Sensor: Nr:Datum:Temp:Abs-Feuchte:Windchill:Wind:
Aussen-T/F 1026 09-03-2003 04:17:13 8 C 5.13 g/m*3 8 C 0 km/h
1027 09-03-2003 04:29:13 7.9 C 5.17 g/m*3 7.9 C 0 km/h
1028 09-03-2003 04:41:13 8 C 5.13 g/m*3 8 C 0 km/h
1029 09-03-2003 04:53:13 7.8 C 5.14 g/m*3 7.8 C 0 km/h
1030 09-03-2003 05:05:13 7.8 C 5.14 g/m*3 7.8 C 0 km/h
1031 09-03-2003 05:17:13 7.5 C 5.2 g/m*3 7.5 C 0 km/h
1032 09-03-2003 05:29:13 7.3 C 5.21 g/m*3 7.3 C 0 km/h
1033 09-03-2003 05:41:13 7.4 C 5.17 g/m*3 7.4 C 0 km/h
1034 09-03-2003 05:53:13 7 C 5.19 g/m*3 7 C 0 km/h
1035 09-03-2003 06:05:13 6.7 C 5.32 g/m*3 6.7 C 0 km/h
1036 09-03-2003 06:17:13 6.8 C 5.35 g/m*3 6.8 C 0 km/h
1037 09-03-2003 06:29:13 6.9 C 5.39 g/m*3 6.9 C 0 km/h
1038 09-03-2003 06:41:13 7 C 5.35 g/m*3 7 C 0 km/h
1039 09-03-2003 06:53:13 7 C 5.27 g/m*3 7 C 0 km/h
1040 09-03-2003 07:05:13 7 C 5.35 g/m*3 7 C 0 km/h
1041 09-03-2003 07:17:13 7 C 5.27 g/m*3 7 C 0 km/h
1042 09-03-2003 07:29:13 7 C 5.27 g/m*3 7 C 0 km/h
1043 09-03-2003 07:41:13 7.1 C 5.23 g/m*3 7.1 C 0 km/h
1044 09-03-2003 07:53:13 7.3 C 5.29 g/m*3 7.3 C 0 km/h
1045 09-03-2003 08:05:13 7.4 C 5.25 g/m*3 7.4 C 0 km/h
1046 09-03-2003 08:17:13 7.7 C 5.27 g/m*3 7.7 C 0 km/h
1047 09-03-2003 08:29:13 7.9 C 5.26 g/m*3 7.9 C 0 km/h
1048 09-03-2003 08:41:13 8.1 C 5.16 g/m*3 8.1 C 0 km/h
1049 09-03-2003 08:53:13 8.3 C 5.14 g/m*3 8.3 C 0 km/h
1050 09-03-2003 09:05:13 8.5 C 5.21 g/m*3 8.5 C 0 km/h
Sensor: Nr:Datum:Temp:Abs-Feuchte:Windchill:Wind:
Aussen-T/F 1051 09-03-2003 09:17:13 8.5 C 5.21 g/m*3 8.5 C 0 km/h
1052 09-03-2003 09:29:13 8.6 C 5.24 g/m*3 8.6 C 0 km/h
1053 09-03-2003 09:41:13 8.7 C 5.19 g/m*3 8.7 C 0 km/h
1054 09-03-2003 09:53:13 9 C 5.2 g/m*3 9 C 0 km/h
1055 09-03-2003 10:05:13 9.1 C 5.23 g/m*3 9.1 C 0 km/h
1056 09-03-2003 10:17:13 9.4 C 5.34 g/m*3 9.4 C 0 km/h
1057 09-03-2003 10:29:13 9.5 C 5.28 g/m*3 9.5 C 0 km/h
1058 09-03-2003 10:41:13 9.5 C 5.28 g/m*3 9.5 C 0 km/h
1059 09-03-2003 10:53:13 9.5 C 5.28 g/m*3 9.5 C 0 km/h
1060 09-03-2003 11:05:12 9.5 C 5.28 g/m*3 9.5 C 0 km/h
1061 09-03-2003 11:17:12 9.5 C 5.28 g/m*3 9.5 C 0 km/h
1062 09-03-2003 11:29:12 9.5 C 5.28 g/m*3 9.5 C 0 km/h
1063 09-03-2003 11:41:12 9.5 C 5.28 g/m*3 9.5 C 0 km/h
1064 09-03-2003 11:53:12 9.5 C 5.28 g/m*3 9.5 C 0 km/h
1065 09-03-2003 12:05:12 9.5 C 5.28 g/m*3 9.5 C 0 km/h
1066 09-03-2003 12:17:12 9.5 C 5.28 g/m*3 9.5 C 0 km/h
1067 09-03-2003 12:29:12 9.5 C 5.28 g/m*3 9.5 C 0 km/h
1068 09-03-2003 12:41:12 9.5 C 5.28 g/m*3 9.5 C 0 km/h
1069 09-03-2003 12:53:12 9.5 C 5.28 g/m*3 9.5 C 0 km/h
1070 09-03-2003 13:05:12 9.5 C 5.28 g/m*3 9.5 C 0 km/h
1071 09-03-2003 13:17:12 9.5 C 5.28 g/m*3 9.5 C 0 km/h
1072 09-03-2003 13:29:12 9.5 C 5.28 g/m*3 9.5 C 0 km/h
1073 09-03-2003 13:41:12 9.5 C 5.28 g/m*3 9.5 C 0 km/h
1074 09-03-2003 13:53:12 9.5 C 5.28 g/m*3 9.5 C 0 km/h
1075 09-03-2003 14:05:12 9.5 C 5.28 g/m*3 9.5 C 0 km/h
Sensor: Nr:Datum:Temp:Abs-Feuchte:Windchill:Wind:
Aussen-T/F 1076 09-03-2003 14:17:12 9.5 C 5.28 g/m*3 9.5 C 0 km/h
1077 09-03-2003 14:29:12 9.5 C 5.28 g/m*3 9.5 C 0 km/h
1078 09-03-2003 14:41:12 15.5 C 5.02 g/m*3 15.5 C 0 km/h
1079 09-03-2003 14:53:12 16.1 C 4.93 g/m*3 16.1 C 0 km/h
1080 09-03-2003 15:05:13 15.8 C 4.85 g/m*3 15.8 C 0 km/h
1081 09-03-2003 15:17:13 15.8 C 4.85 g/m*3 15.8 C 0 km/h
1082 09-03-2003 15:29:13 15.9 C 5.01 g/m*3 15.9 C 0 km/h
1083 09-03-2003 15:41:13 15.9 C 5.01 g/m*3 15.9 C 0 km/h
1084 09-03-2003 15:53:13 16.3 C 4.86 g/m*3 16.3 C 0 km/h
1085 09-03-2003 16:05:12 17 C 4.77 g/m*3 17 C 0 km/h
1086 09-03-2003 16:17:12 17 C 4.77 g/m*3 17 C 0 km/h
1087 09-03-2003 16:29:12 17 C 4.77 g/m*3 17 C 0 km/h
1088 09-03-2003 19:17:19 12.8 C 5.15 g/m*3 12.8 C 0 km/h
1089 09-03-2003 19:25:12 12.8 C 5.15 g/m*3 12.8 C 0 km/h
1090 09-03-2003 19:37:12 11.5 C 5.37 g/m*3 11.5 C 0 km/h
1091 09-03-2003 19:49:12 12 C 5.22 g/m*3 12 C 0 km/h
1092 09-03-2003 20:01:12 13.1 C 5.02 g/m*3 13.1 C 0 km/h
1093 09-03-2003 20:13:12 13.2 C 5.05 g/m*3 13.2 C 0 km/h
1094 09-03-2003 20:25:12 13.2 C 5.05 g/m*3 13.2 C 0 km/h
1095 09-03-2003 20:37:12 13.1 C 5.02 g/m*3 13.1 C 0 km/h
1096 09-03-2003 20:49:12 12.8 C 5.15 g/m*3 12.8 C 0 km/h
1097 09-03-2003 21:01:12 12.8 C 5.26 g/m*3 12.8 C 0 km/h
1098 09-03-2003 21:14:13 12.4 C 5.24 g/m*3 12.4 C 0 km/h
1099 09-03-2003 21:26:13 12.2 C 5.29 g/m*3 12.2 C 0 km/h
1100 09-03-2003 21:38:13 11.9 C 5.4 g/m*3 11.9 C 0 km/h
Sensor: Nr:Datum:Temp:Abs-Feuchte:Windchill:Wind:
Aussen-T/F 1101 09-03-2003 21:50:13 11.8 C 5.37 g/m*3 11.8 C 0 km/h
1102 09-03-2003 22:02:13 11.5 C 5.37 g/m*3 11.5 C 0 km/h
1103 09-03-2003 22:14:13 11.3 C 5.41 g/m*3 11.3 C 0 km/h
1104 09-03-2003 22:26:13 11.2 C 5.47 g/m*3 11.2 C 0 km/h
1105 09-03-2003 22:50:13 10.8 C 5.54 g/m*3 10.8 C 0 km/h
1106 09-03-2003 23:02:13 10.6 C 5.56 g/m*3 10.6 C 0 km/h
1107 09-03-2003 23:14:13 10.5 C 5.63 g/m*3 10.5 C 0 km/h
1108 09-03-2003 23:26:13 10.2 C 5.52 g/m*3 10.2 C 0 km/h
1109 09-03-2003 23:38:13 9.8 C 5.57 g/m*3 9.8 C 0 km/h
1110 09-03-2003 23:50:13 9.4 C 5.52 g/m*3 9.4 C 0 km/h

Legende:
   Min
   Max


Maximal/Minimal-Werte vom 03.03.2003 - 09.03.2003

Sensor Min Max Avg
Temp
(Aussen-T/F)
0.9 °C
04-03-2003  08:04:10
17 °C
09-03-2003  16:05:12
7.51 °C
Abs-Feuchte
(Aussen-T/F)
4.28 g/m*3
08-03-2003  16:05:11
7.24 g/m*3
06-03-2003  13:12:12
5.47 g/m*3
Windchill
(Aussen-T/F)
0.9 C
04-03-2003  08:04:10
17 C
09-03-2003  16:05:12
7.2 C

Die Daten stammen von einer Davis Vantage Pro 2 Wetter-Station und werden unter Linux mit der Software wview2wettercgi und aufbereitet. Alle Angaben erfolgen ohne Gewähr für ihre Vollständigkeit oder Richtigkeit.
Kontakt: Rainer Krienke krienke@uni-koblenz.de . Meine Webseiten an der Uni Koblenz oder privat.
Version: $Revision: 0.78 $